<?xml version="1.0" encoding="UTF-8" standalone="no" ?>
<gpx xmlns="http://www.topografix.com/GPX/1/1" xmlns:xsi="http://www.w3.org/2001/XMLSchema-instance" xsi:schemaLocation="http://www.topografix.com/GPX/1/1 http://www.topografix.com/GPX/1/1/gpx.xsd" version="1.1" creator="VisuGPX - https://www.visugpx.com">
  <metadata>
    <name>hhshshsshshshsshsh</name>
  </metadata>
  <trk>
    <name><![CDATA[12435814-Vélo To Terroir J-2]]></name>
    <trkseg>
      <trkpt lat="45.28736" lon="5.28691">
        <ele>634</ele>
        <time>2021-01-15T10:59:46Z</time>
      </trkpt>
      <trkpt lat="45.28726" lon="5.28709">
        <ele>634</ele>
        <time>2021-01-15T10:59:50Z</time>
      </trkpt>
      <trkpt lat="45.28719" lon="5.28716">
        <ele>635</ele>
        <time>2021-01-15T10:59:52Z</time>
      </trkpt>
      <trkpt lat="45.28701" lon="5.28718">
        <ele>636</ele>
        <time>2021-01-15T10:59:56Z</time>
      </trkpt>
      <trkpt lat="45.28681" lon="5.28726">
        <ele>638</ele>
        <time>2021-01-15T11:00:01Z</time>
      </trkpt>
      <trkpt lat="45.28668" lon="5.2876">
        <ele>638</ele>
        <time>2021-01-15T11:00:07Z</time>
      </trkpt>
      <trkpt lat="45.28668" lon="5.28775">
        <ele>637</ele>
        <time>2021-01-15T11:00:10Z</time>
      </trkpt>
      <trkpt lat="45.28656" lon="5.28826">
        <ele>636</ele>
        <time>2021-01-15T11:00:18Z</time>
      </trkpt>
      <trkpt lat="45.2867" lon="5.28872">
        <ele>635</ele>
        <time>2021-01-15T11:00:27Z</time>
      </trkpt>
      <trkpt lat="45.28665" lon="5.28894">
        <ele>636</ele>
        <time>2021-01-15T11:00:31Z</time>
      </trkpt>
      <trkpt lat="45.28668" lon="5.2891">
        <ele>636</ele>
        <time>2021-01-15T11:00:33Z</time>
      </trkpt>
      <trkpt lat="45.28682" lon="5.28928">
        <ele>636</ele>
        <time>2021-01-15T11:00:38Z</time>
      </trkpt>
      <trkpt lat="45.28696" lon="5.28927">
        <ele>636</ele>
        <time>2021-01-15T11:00:41Z</time>
      </trkpt>
      <trkpt lat="45.28704" lon="5.28924">
        <ele>636</ele>
        <time>2021-01-15T11:00:43Z</time>
      </trkpt>
      <trkpt lat="45.28707" lon="5.28919">
        <ele>636</ele>
        <time>2021-01-15T11:00:44Z</time>
      </trkpt>
      <trkpt lat="45.28718" lon="5.28922">
        <ele>636</ele>
        <time>2021-01-15T11:00:47Z</time>
      </trkpt>
      <trkpt lat="45.28741" lon="5.28914">
        <ele>636</ele>
        <time>2021-01-15T11:00:52Z</time>
      </trkpt>
      <trkpt lat="45.28756" lon="5.28913">
        <ele>636</ele>
        <time>2021-01-15T11:00:56Z</time>
      </trkpt>
      <trkpt lat="45.28772" lon="5.2889">
        <ele>634</ele>
        <time>2021-01-15T11:01:01Z</time>
      </trkpt>
      <trkpt lat="45.28788" lon="5.28886">
        <ele>633</ele>
        <time>2021-01-15T11:01:05Z</time>
      </trkpt>
      <trkpt lat="45.28804" lon="5.2888">
        <ele>633</ele>
        <time>2021-01-15T11:01:09Z</time>
      </trkpt>
      <trkpt lat="45.28814" lon="5.2888">
        <ele>633</ele>
        <time>2021-01-15T11:01:11Z</time>
      </trkpt>
      <trkpt lat="45.28829" lon="5.28868">
        <ele>632</ele>
        <time>2021-01-15T11:01:15Z</time>
      </trkpt>
      <trkpt lat="45.28836" lon="5.28869">
        <ele>632</ele>
        <time>2021-01-15T11:01:17Z</time>
      </trkpt>
      <trkpt lat="45.28849" lon="5.28884">
        <ele>632</ele>
        <time>2021-01-15T11:01:20Z</time>
      </trkpt>
      <trkpt lat="45.28852" lon="5.28904">
        <ele>632</ele>
        <time>2021-01-15T11:01:24Z</time>
      </trkpt>
      <trkpt lat="45.28849" lon="5.28938">
        <ele>634</ele>
        <time>2021-01-15T11:01:29Z</time>
      </trkpt>
      <trkpt lat="45.2885" lon="5.29008">
        <ele>636</ele>
        <time>2021-01-15T11:01:41Z</time>
      </trkpt>
      <trkpt lat="45.28853" lon="5.29098">
        <ele>638</ele>
        <time>2021-01-15T11:01:56Z</time>
      </trkpt>
      <trkpt lat="45.28859" lon="5.29216">
        <ele>641</ele>
        <time>2021-01-15T11:02:15Z</time>
      </trkpt>
      <trkpt lat="45.28856" lon="5.29261">
        <ele>642</ele>
        <time>2021-01-15T11:02:23Z</time>
      </trkpt>
      <trkpt lat="45.28856" lon="5.29305">
        <ele>641</ele>
        <time>2021-01-15T11:02:30Z</time>
      </trkpt>
      <trkpt lat="45.28861" lon="5.29315">
        <ele>641</ele>
        <time>2021-01-15T11:02:32Z</time>
      </trkpt>
      <trkpt lat="45.28858" lon="5.29325">
        <ele>641</ele>
        <time>2021-01-15T11:02:34Z</time>
      </trkpt>
      <trkpt lat="45.28859" lon="5.29352">
        <ele>640</ele>
        <time>2021-01-15T11:02:38Z</time>
      </trkpt>
      <trkpt lat="45.28856" lon="5.29362">
        <ele>640</ele>
        <time>2021-01-15T11:02:40Z</time>
      </trkpt>
      <trkpt lat="45.28861" lon="5.29403">
        <ele>640</ele>
        <time>2021-01-15T11:02:47Z</time>
      </trkpt>
      <trkpt lat="45.28863" lon="5.2948">
        <ele>641</ele>
        <time>2021-01-15T11:02:59Z</time>
      </trkpt>
      <trkpt lat="45.29117" lon="5.29464">
        <ele>641</ele>
        <time>2021-01-15T11:03:59Z</time>
      </trkpt>
      <trkpt lat="45.2911" lon="5.29526">
        <ele>642</ele>
        <time>2021-01-15T11:04:09Z</time>
      </trkpt>
      <trkpt lat="45.29095" lon="5.29592">
        <ele>646</ele>
        <time>2021-01-15T11:04:20Z</time>
      </trkpt>
      <trkpt lat="45.29026" lon="5.29737">
        <ele>645</ele>
        <time>2021-01-15T11:04:49Z</time>
      </trkpt>
      <trkpt lat="45.29009" lon="5.29794">
        <ele>645</ele>
        <time>2021-01-15T11:04:59Z</time>
      </trkpt>
      <trkpt lat="45.28988" lon="5.29848">
        <ele>647</ele>
        <time>2021-01-15T11:05:10Z</time>
      </trkpt>
      <trkpt lat="45.28979" lon="5.29888">
        <ele>648</ele>
        <time>2021-01-15T11:05:16Z</time>
      </trkpt>
      <trkpt lat="45.28978" lon="5.2995">
        <ele>649</ele>
        <time>2021-01-15T11:05:27Z</time>
      </trkpt>
      <trkpt lat="45.28983" lon="5.30279">
        <ele>658</ele>
        <time>2021-01-15T11:06:21Z</time>
      </trkpt>
      <trkpt lat="45.29019" lon="5.30284">
        <ele>658</ele>
        <time>2021-01-15T11:06:29Z</time>
      </trkpt>
      <trkpt lat="45.29019" lon="5.30474">
        <ele>659</ele>
        <time>2021-01-15T11:07:00Z</time>
      </trkpt>
      <trkpt lat="45.29063" lon="5.30474">
        <ele>659</ele>
        <time>2021-01-15T11:07:11Z</time>
      </trkpt>
      <trkpt lat="45.29067" lon="5.30598">
        <ele>661</ele>
        <time>2021-01-15T11:07:31Z</time>
      </trkpt>
      <trkpt lat="45.29132" lon="5.30613">
        <ele>661</ele>
        <time>2021-01-15T11:07:46Z</time>
      </trkpt>
      <trkpt lat="45.2916" lon="5.30613">
        <ele>661</ele>
        <time>2021-01-15T11:07:53Z</time>
      </trkpt>
      <trkpt lat="45.29188" lon="5.30583">
        <ele>657</ele>
        <time>2021-01-15T11:08:01Z</time>
      </trkpt>
      <trkpt lat="45.29206" lon="5.3053">
        <ele>653</ele>
        <time>2021-01-15T11:08:11Z</time>
      </trkpt>
      <trkpt lat="45.29216" lon="5.30476">
        <ele>652</ele>
        <time>2021-01-15T11:08:20Z</time>
      </trkpt>
      <trkpt lat="45.29226" lon="5.30403">
        <ele>652</ele>
        <time>2021-01-15T11:08:32Z</time>
      </trkpt>
      <trkpt lat="45.29239" lon="5.30371">
        <ele>650</ele>
        <time>2021-01-15T11:08:38Z</time>
      </trkpt>
      <trkpt lat="45.29252" lon="5.30328">
        <ele>647</ele>
        <time>2021-01-15T11:08:46Z</time>
      </trkpt>
      <trkpt lat="45.29255" lon="5.30269">
        <ele>643</ele>
        <time>2021-01-15T11:08:56Z</time>
      </trkpt>
      <trkpt lat="45.29268" lon="5.30217">
        <ele>638</ele>
        <time>2021-01-15T11:09:05Z</time>
      </trkpt>
      <trkpt lat="45.29288" lon="5.30165">
        <ele>633</ele>
        <time>2021-01-15T11:09:14Z</time>
      </trkpt>
      <trkpt lat="45.29315" lon="5.30105">
        <ele>630</ele>
        <time>2021-01-15T11:09:26Z</time>
      </trkpt>
      <trkpt lat="45.29333" lon="5.30038">
        <ele>627</ele>
        <time>2021-01-15T11:09:38Z</time>
      </trkpt>
      <trkpt lat="45.2935" lon="5.2993">
        <ele>619</ele>
        <time>2021-01-15T11:09:56Z</time>
      </trkpt>
      <trkpt lat="45.29367" lon="5.29847">
        <ele>611</ele>
        <time>2021-01-15T11:10:10Z</time>
      </trkpt>
      <trkpt lat="45.29372" lon="5.29801">
        <ele>612</ele>
        <time>2021-01-15T11:10:18Z</time>
      </trkpt>
      <trkpt lat="45.29383" lon="5.29739">
        <ele>614</ele>
        <time>2021-01-15T11:10:28Z</time>
      </trkpt>
      <trkpt lat="45.29421" lon="5.29704">
        <ele>610</ele>
        <time>2021-01-15T11:10:39Z</time>
      </trkpt>
      <trkpt lat="45.29418" lon="5.29725">
        <ele>609</ele>
        <time>2021-01-15T11:10:43Z</time>
      </trkpt>
      <trkpt lat="45.29437" lon="5.29746">
        <ele>604</ele>
        <time>2021-01-15T11:10:48Z</time>
      </trkpt>
      <trkpt lat="45.29515" lon="5.29752">
        <ele>594</ele>
        <time>2021-01-15T11:11:06Z</time>
      </trkpt>
      <trkpt lat="45.29574" lon="5.29749">
        <ele>592</ele>
        <time>2021-01-15T11:11:20Z</time>
      </trkpt>
      <trkpt lat="45.29687" lon="5.29716">
        <ele>580</ele>
        <time>2021-01-15T11:11:47Z</time>
      </trkpt>
      <trkpt lat="45.29749" lon="5.29683">
        <ele>572</ele>
        <time>2021-01-15T11:12:03Z</time>
      </trkpt>
      <trkpt lat="45.29932" lon="5.2954">
        <ele>536</ele>
        <time>2021-01-15T11:12:51Z</time>
      </trkpt>
      <trkpt lat="45.29955" lon="5.29509">
        <ele>530</ele>
        <time>2021-01-15T11:12:59Z</time>
      </trkpt>
      <trkpt lat="45.29985" lon="5.29456">
        <ele>523</ele>
        <time>2021-01-15T11:13:10Z</time>
      </trkpt>
      <trkpt lat="45.30021" lon="5.29413">
        <ele>518</ele>
        <time>2021-01-15T11:13:21Z</time>
      </trkpt>
      <trkpt lat="45.30025" lon="5.29385">
        <ele>516</ele>
        <time>2021-01-15T11:13:26Z</time>
      </trkpt>
      <trkpt lat="45.3003" lon="5.29391">
        <ele>516</ele>
        <time>2021-01-15T11:13:27Z</time>
      </trkpt>
      <trkpt lat="45.30042" lon="5.29397">
        <ele>515</ele>
        <time>2021-01-15T11:13:30Z</time>
      </trkpt>
      <trkpt lat="45.30068" lon="5.29388">
        <ele>512</ele>
        <time>2021-01-15T11:13:36Z</time>
      </trkpt>
      <trkpt lat="45.3008" lon="5.2938">
        <ele>511</ele>
        <time>2021-01-15T11:13:40Z</time>
      </trkpt>
      <trkpt lat="45.30092" lon="5.29367">
        <ele>513</ele>
        <time>2021-01-15T11:13:43Z</time>
      </trkpt>
      <trkpt lat="45.30113" lon="5.29325">
        <ele>519</ele>
        <time>2021-01-15T11:13:51Z</time>
      </trkpt>
      <trkpt lat="45.30127" lon="5.29288">
        <ele>522</ele>
        <time>2021-01-15T11:13:58Z</time>
      </trkpt>
      <trkpt lat="45.30143" lon="5.29207">
        <ele>524</ele>
        <time>2021-01-15T11:14:12Z</time>
      </trkpt>
      <trkpt lat="45.30175" lon="5.29077">
        <ele>524</ele>
        <time>2021-01-15T11:14:35Z</time>
      </trkpt>
      <trkpt lat="45.30189" lon="5.29032">
        <ele>526</ele>
        <time>2021-01-15T11:14:43Z</time>
      </trkpt>
      <trkpt lat="45.30202" lon="5.28968">
        <ele>527</ele>
        <time>2021-01-15T11:14:54Z</time>
      </trkpt>
      <trkpt lat="45.30208" lon="5.28949">
        <ele>528</ele>
        <time>2021-01-15T11:14:57Z</time>
      </trkpt>
      <trkpt lat="45.30218" lon="5.28936">
        <ele>530</ele>
        <time>2021-01-15T11:15:00Z</time>
      </trkpt>
      <trkpt lat="45.30236" lon="5.28928">
        <ele>534</ele>
        <time>2021-01-15T11:15:05Z</time>
      </trkpt>
      <trkpt lat="45.30253" lon="5.28927">
        <ele>537</ele>
        <time>2021-01-15T11:15:09Z</time>
      </trkpt>
      <trkpt lat="45.30288" lon="5.28952">
        <ele>538</ele>
        <time>2021-01-15T11:15:18Z</time>
      </trkpt>
      <trkpt lat="45.30308" lon="5.28977">
        <ele>540</ele>
        <time>2021-01-15T11:15:24Z</time>
      </trkpt>
      <trkpt lat="45.30334" lon="5.28997">
        <ele>542</ele>
        <time>2021-01-15T11:15:31Z</time>
      </trkpt>
      <trkpt lat="45.30341" lon="5.29009">
        <ele>543</ele>
        <time>2021-01-15T11:15:34Z</time>
      </trkpt>
      <trkpt lat="45.30365" lon="5.29056">
        <ele>549</ele>
        <time>2021-01-15T11:15:43Z</time>
      </trkpt>
      <trkpt lat="45.30372" lon="5.29052">
        <ele>549</ele>
        <time>2021-01-15T11:15:45Z</time>
      </trkpt>
      <trkpt lat="45.30383" lon="5.2901">
        <ele>544</ele>
        <time>2021-01-15T11:15:52Z</time>
      </trkpt>
      <trkpt lat="45.30404" lon="5.28977">
        <ele>541</ele>
        <time>2021-01-15T11:16:00Z</time>
      </trkpt>
      <trkpt lat="45.30413" lon="5.28967">
        <ele>541</ele>
        <time>2021-01-15T11:16:02Z</time>
      </trkpt>
      <trkpt lat="45.30441" lon="5.28947">
        <ele>541</ele>
        <time>2021-01-15T11:16:10Z</time>
      </trkpt>
      <trkpt lat="45.30474" lon="5.28934">
        <ele>543</ele>
        <time>2021-01-15T11:16:18Z</time>
      </trkpt>
      <trkpt lat="45.30525" lon="5.28907">
        <ele>545</ele>
        <time>2021-01-15T11:16:30Z</time>
      </trkpt>
      <trkpt lat="45.30552" lon="5.28905">
        <ele>549</ele>
        <time>2021-01-15T11:16:37Z</time>
      </trkpt>
      <trkpt lat="45.30569" lon="5.2891">
        <ele>550</ele>
        <time>2021-01-15T11:16:41Z</time>
      </trkpt>
      <trkpt lat="45.30592" lon="5.28921">
        <ele>553</ele>
        <time>2021-01-15T11:16:46Z</time>
      </trkpt>
      <trkpt lat="45.30683" lon="5.28998">
        <ele>554</ele>
        <time>2021-01-15T11:17:11Z</time>
      </trkpt>
      <trkpt lat="45.30736" lon="5.29082">
        <ele>549</ele>
        <time>2021-01-15T11:17:30Z</time>
      </trkpt>
      <trkpt lat="45.30724" lon="5.29109">
        <ele>551</ele>
        <time>2021-01-15T11:17:35Z</time>
      </trkpt>
      <trkpt lat="45.30725" lon="5.29148">
        <ele>551</ele>
        <time>2021-01-15T11:17:41Z</time>
      </trkpt>
      <trkpt lat="45.30641" lon="5.2925">
        <ele>569</ele>
        <time>2021-01-15T11:18:07Z</time>
      </trkpt>
      <trkpt lat="45.3055" lon="5.29304">
        <ele>584</ele>
        <time>2021-01-15T11:18:30Z</time>
      </trkpt>
      <trkpt lat="45.30542" lon="5.29322">
        <ele>586</ele>
        <time>2021-01-15T11:18:34Z</time>
      </trkpt>
      <trkpt lat="45.30539" lon="5.29378">
        <ele>590</ele>
        <time>2021-01-15T11:18:43Z</time>
      </trkpt>
      <trkpt lat="45.30525" lon="5.29464">
        <ele>596</ele>
        <time>2021-01-15T11:18:57Z</time>
      </trkpt>
      <trkpt lat="45.30523" lon="5.29503">
        <ele>598</ele>
        <time>2021-01-15T11:19:04Z</time>
      </trkpt>
      <trkpt lat="45.3055" lon="5.2961">
        <ele>604</ele>
        <time>2021-01-15T11:19:22Z</time>
      </trkpt>
      <trkpt lat="45.30561" lon="5.29673">
        <ele>606</ele>
        <time>2021-01-15T11:19:33Z</time>
      </trkpt>
      <trkpt lat="45.30577" lon="5.29712">
        <ele>605</ele>
        <time>2021-01-15T11:19:40Z</time>
      </trkpt>
      <trkpt lat="45.30586" lon="5.29778">
        <ele>604</ele>
        <time>2021-01-15T11:19:52Z</time>
      </trkpt>
      <trkpt lat="45.30591" lon="5.29781">
        <ele>604</ele>
        <time>2021-01-15T11:19:53Z</time>
      </trkpt>
      <trkpt lat="45.30592" lon="5.29787">
        <ele>604</ele>
        <time>2021-01-15T11:19:54Z</time>
      </trkpt>
      <trkpt lat="45.3059" lon="5.29797">
        <ele>604</ele>
        <time>2021-01-15T11:19:56Z</time>
      </trkpt>
      <trkpt lat="45.30576" lon="5.29825">
        <ele>605</ele>
        <time>2021-01-15T11:20:01Z</time>
      </trkpt>
      <trkpt lat="45.3057" lon="5.29847">
        <ele>607</ele>
        <time>2021-01-15T11:20:05Z</time>
      </trkpt>
      <trkpt lat="45.3056" lon="5.29954">
        <ele>617</ele>
        <time>2021-01-15T11:20:23Z</time>
      </trkpt>
      <trkpt lat="45.30555" lon="5.29988">
        <ele>619</ele>
        <time>2021-01-15T11:20:28Z</time>
      </trkpt>
      <trkpt lat="45.30542" lon="5.30012">
        <ele>621</ele>
        <time>2021-01-15T11:20:33Z</time>
      </trkpt>
      <trkpt lat="45.30535" lon="5.30042">
        <ele>623</ele>
        <time>2021-01-15T11:20:39Z</time>
      </trkpt>
      <trkpt lat="45.30532" lon="5.30112">
        <ele>625</ele>
        <time>2021-01-15T11:20:50Z</time>
      </trkpt>
      <trkpt lat="45.30533" lon="5.30129">
        <ele>626</ele>
        <time>2021-01-15T11:20:53Z</time>
      </trkpt>
      <trkpt lat="45.30545" lon="5.30173">
        <ele>627</ele>
        <time>2021-01-15T11:21:01Z</time>
      </trkpt>
      <trkpt lat="45.30559" lon="5.30241">
        <ele>631</ele>
        <time>2021-01-15T11:21:12Z</time>
      </trkpt>
      <trkpt lat="45.30559" lon="5.30281">
        <ele>633</ele>
        <time>2021-01-15T11:21:19Z</time>
      </trkpt>
      <trkpt lat="45.3056" lon="5.30306">
        <ele>634</ele>
        <time>2021-01-15T11:21:23Z</time>
      </trkpt>
      <trkpt lat="45.30567" lon="5.3034">
        <ele>635</ele>
        <time>2021-01-15T11:21:29Z</time>
      </trkpt>
      <trkpt lat="45.3057" lon="5.3036">
        <ele>635</ele>
        <time>2021-01-15T11:21:32Z</time>
      </trkpt>
      <trkpt lat="45.3057" lon="5.30378">
        <ele>635</ele>
        <time>2021-01-15T11:21:35Z</time>
      </trkpt>
      <trkpt lat="45.30567" lon="5.30404">
        <ele>635</ele>
        <time>2021-01-15T11:21:39Z</time>
      </trkpt>
      <trkpt lat="45.30563" lon="5.30467">
        <ele>635</ele>
        <time>2021-01-15T11:21:50Z</time>
      </trkpt>
      <trkpt lat="45.30552" lon="5.30521">
        <ele>634</ele>
        <time>2021-01-15T11:21:59Z</time>
      </trkpt>
      <trkpt lat="45.30546" lon="5.30646">
        <ele>632</ele>
        <time>2021-01-15T11:22:20Z</time>
      </trkpt>
      <trkpt lat="45.30547" lon="5.30751">
        <ele>633</ele>
        <time>2021-01-15T11:22:37Z</time>
      </trkpt>
      <trkpt lat="45.3055" lon="5.30779">
        <ele>631</ele>
        <time>2021-01-15T11:22:42Z</time>
      </trkpt>
      <trkpt lat="45.30551" lon="5.30829">
        <ele>628</ele>
        <time>2021-01-15T11:22:50Z</time>
      </trkpt>
      <trkpt lat="45.30542" lon="5.3098">
        <ele>624</ele>
        <time>2021-01-15T11:23:15Z</time>
      </trkpt>
      <trkpt lat="45.30537" lon="5.31025">
        <ele>623</ele>
        <time>2021-01-15T11:23:22Z</time>
      </trkpt>
      <trkpt lat="45.30536" lon="5.31081">
        <ele>622</ele>
        <time>2021-01-15T11:23:31Z</time>
      </trkpt>
      <trkpt lat="45.30532" lon="5.31112">
        <ele>621</ele>
        <time>2021-01-15T11:23:37Z</time>
      </trkpt>
      <trkpt lat="45.30528" lon="5.31134">
        <ele>620</ele>
        <time>2021-01-15T11:23:40Z</time>
      </trkpt>
      <trkpt lat="45.30527" lon="5.31174">
        <ele>618</ele>
        <time>2021-01-15T11:23:47Z</time>
      </trkpt>
      <trkpt lat="45.30538" lon="5.3129">
        <ele>614</ele>
        <time>2021-01-15T11:24:06Z</time>
      </trkpt>
      <trkpt lat="45.30541" lon="5.3134">
        <ele>614</ele>
        <time>2021-01-15T11:24:14Z</time>
      </trkpt>
      <trkpt lat="45.30547" lon="5.31366">
        <ele>615</ele>
        <time>2021-01-15T11:24:19Z</time>
      </trkpt>
      <trkpt lat="45.30541" lon="5.31383">
        <ele>615</ele>
        <time>2021-01-15T11:24:22Z</time>
      </trkpt>
      <trkpt lat="45.30538" lon="5.31404">
        <ele>615</ele>
        <time>2021-01-15T11:24:25Z</time>
      </trkpt>
      <trkpt lat="45.30526" lon="5.31642">
        <ele>607</ele>
        <time>2021-01-15T11:25:05Z</time>
      </trkpt>
      <trkpt lat="45.30528" lon="5.31737">
        <ele>610</ele>
        <time>2021-01-15T11:25:20Z</time>
      </trkpt>
      <trkpt lat="45.30457" lon="5.31864">
        <ele>617</ele>
        <time>2021-01-15T11:25:47Z</time>
      </trkpt>
      <trkpt lat="45.30437" lon="5.31874">
        <ele>616</ele>
        <time>2021-01-15T11:25:52Z</time>
      </trkpt>
      <trkpt lat="45.30426" lon="5.31874">
        <ele>615</ele>
        <time>2021-01-15T11:25:54Z</time>
      </trkpt>
      <trkpt lat="45.30344" lon="5.32009">
        <ele>627</ele>
        <time>2021-01-15T11:26:24Z</time>
      </trkpt>
      <trkpt lat="45.30286" lon="5.32125">
        <ele>634</ele>
        <time>2021-01-15T11:26:47Z</time>
      </trkpt>
      <trkpt lat="45.3024" lon="5.3221">
        <ele>636</ele>
        <time>2021-01-15T11:27:05Z</time>
      </trkpt>
      <trkpt lat="45.30107" lon="5.32304">
        <ele>641</ele>
        <time>2021-01-15T11:27:39Z</time>
      </trkpt>
      <trkpt lat="45.30039" lon="5.324">
        <ele>646</ele>
        <time>2021-01-15T11:28:02Z</time>
      </trkpt>
      <trkpt lat="45.30017" lon="5.32442">
        <ele>647</ele>
        <time>2021-01-15T11:28:10Z</time>
      </trkpt>
      <trkpt lat="45.29978" lon="5.32495">
        <ele>650</ele>
        <time>2021-01-15T11:28:23Z</time>
      </trkpt>
      <trkpt lat="45.29959" lon="5.32538">
        <ele>653</ele>
        <time>2021-01-15T11:28:31Z</time>
      </trkpt>
      <trkpt lat="45.2993" lon="5.32593">
        <ele>657</ele>
        <time>2021-01-15T11:28:43Z</time>
      </trkpt>
      <trkpt lat="45.29793" lon="5.32684">
        <ele>667</ele>
        <time>2021-01-15T11:29:18Z</time>
      </trkpt>
      <trkpt lat="45.29745" lon="5.32739">
        <ele>669</ele>
        <time>2021-01-15T11:29:32Z</time>
      </trkpt>
      <trkpt lat="45.2974" lon="5.32752">
        <ele>669</ele>
        <time>2021-01-15T11:29:35Z</time>
      </trkpt>
      <trkpt lat="45.29698" lon="5.32795">
        <ele>670</ele>
        <time>2021-01-15T11:29:47Z</time>
      </trkpt>
      <trkpt lat="45.29675" lon="5.32832">
        <ele>673</ele>
        <time>2021-01-15T11:29:55Z</time>
      </trkpt>
      <trkpt lat="45.29626" lon="5.32899">
        <ele>674</ele>
        <time>2021-01-15T11:30:11Z</time>
      </trkpt>
      <trkpt lat="45.29516" lon="5.33016">
        <ele>667</ele>
        <time>2021-01-15T11:30:43Z</time>
      </trkpt>
      <trkpt lat="45.29507" lon="5.33021">
        <ele>665</ele>
        <time>2021-01-15T11:30:45Z</time>
      </trkpt>
      <trkpt lat="45.29495" lon="5.33024">
        <ele>664</ele>
        <time>2021-01-15T11:30:48Z</time>
      </trkpt>
      <trkpt lat="45.29418" lon="5.33019">
        <ele>662</ele>
        <time>2021-01-15T11:31:06Z</time>
      </trkpt>
      <trkpt lat="45.29396" lon="5.33021">
        <ele>665</ele>
        <time>2021-01-15T11:31:11Z</time>
      </trkpt>
      <trkpt lat="45.29369" lon="5.33029">
        <ele>668</ele>
        <time>2021-01-15T11:31:18Z</time>
      </trkpt>
      <trkpt lat="45.29398" lon="5.33143">
        <ele>659</ele>
        <time>2021-01-15T11:31:38Z</time>
      </trkpt>
      <trkpt lat="45.29405" lon="5.33185">
        <ele>656</ele>
        <time>2021-01-15T11:31:45Z</time>
      </trkpt>
      <trkpt lat="45.29428" lon="5.33227">
        <ele>651</ele>
        <time>2021-01-15T11:31:53Z</time>
      </trkpt>
      <trkpt lat="45.29471" lon="5.33279">
        <ele>641</ele>
        <time>2021-01-15T11:32:07Z</time>
      </trkpt>
      <trkpt lat="45.29492" lon="5.33322">
        <ele>636</ele>
        <time>2021-01-15T11:32:15Z</time>
      </trkpt>
      <trkpt lat="45.29494" lon="5.33373">
        <ele>629</ele>
        <time>2021-01-15T11:32:24Z</time>
      </trkpt>
      <trkpt lat="45.29487" lon="5.33415">
        <ele>623</ele>
        <time>2021-01-15T11:32:31Z</time>
      </trkpt>
      <trkpt lat="45.29458" lon="5.33465">
        <ele>617</ele>
        <time>2021-01-15T11:32:41Z</time>
      </trkpt>
      <trkpt lat="45.2944" lon="5.33507">
        <ele>612</ele>
        <time>2021-01-15T11:32:49Z</time>
      </trkpt>
      <trkpt lat="45.29428" lon="5.33554">
        <ele>608</ele>
        <time>2021-01-15T11:32:58Z</time>
      </trkpt>
      <trkpt lat="45.29437" lon="5.33594">
        <ele>601</ele>
        <time>2021-01-15T11:33:04Z</time>
      </trkpt>
      <trkpt lat="45.29463" lon="5.33638">
        <ele>592</ele>
        <time>2021-01-15T11:33:14Z</time>
      </trkpt>
      <trkpt lat="45.29478" lon="5.3364">
        <ele>590</ele>
        <time>2021-01-15T11:33:17Z</time>
      </trkpt>
      <trkpt lat="45.29495" lon="5.33615">
        <ele>590</ele>
        <time>2021-01-15T11:33:23Z</time>
      </trkpt>
      <trkpt lat="45.29507" lon="5.33612">
        <ele>589</ele>
        <time>2021-01-15T11:33:26Z</time>
      </trkpt>
      <trkpt lat="45.29519" lon="5.33615">
        <ele>586</ele>
        <time>2021-01-15T11:33:29Z</time>
      </trkpt>
      <trkpt lat="45.29543" lon="5.33595">
        <ele>585</ele>
        <time>2021-01-15T11:33:35Z</time>
      </trkpt>
      <trkpt lat="45.2955" lon="5.33566">
        <ele>588</ele>
        <time>2021-01-15T11:33:40Z</time>
      </trkpt>
      <trkpt lat="45.29564" lon="5.33542">
        <ele>590</ele>
        <time>2021-01-15T11:33:46Z</time>
      </trkpt>
      <trkpt lat="45.29595" lon="5.33452">
        <ele>598</ele>
        <time>2021-01-15T11:34:02Z</time>
      </trkpt>
      <trkpt lat="45.29613" lon="5.3341">
        <ele>601</ele>
        <time>2021-01-15T11:34:10Z</time>
      </trkpt>
      <trkpt lat="45.29621" lon="5.33385">
        <ele>603</ele>
        <time>2021-01-15T11:34:15Z</time>
      </trkpt>
      <trkpt lat="45.29621" lon="5.33365">
        <ele>606</ele>
        <time>2021-01-15T11:34:18Z</time>
      </trkpt>
      <trkpt lat="45.29618" lon="5.33342">
        <ele>609</ele>
        <time>2021-01-15T11:34:22Z</time>
      </trkpt>
      <trkpt lat="45.29618" lon="5.33324">
        <ele>612</ele>
        <time>2021-01-15T11:34:25Z</time>
      </trkpt>
      <trkpt lat="45.29622" lon="5.33313">
        <ele>613</ele>
        <time>2021-01-15T11:34:27Z</time>
      </trkpt>
      <trkpt lat="45.29629" lon="5.33308">
        <ele>612</ele>
        <time>2021-01-15T11:34:29Z</time>
      </trkpt>
      <trkpt lat="45.29662" lon="5.33265">
        <ele>614</ele>
        <time>2021-01-15T11:34:39Z</time>
      </trkpt>
      <trkpt lat="45.29672" lon="5.33259">
        <ele>615</ele>
        <time>2021-01-15T11:34:41Z</time>
      </trkpt>
      <trkpt lat="45.29683" lon="5.33265">
        <ele>614</ele>
        <time>2021-01-15T11:34:44Z</time>
      </trkpt>
      <trkpt lat="45.29712" lon="5.33272">
        <ele>614</ele>
        <time>2021-01-15T11:34:51Z</time>
      </trkpt>
      <trkpt lat="45.29726" lon="5.33268">
        <ele>615</ele>
        <time>2021-01-15T11:34:54Z</time>
      </trkpt>
      <trkpt lat="45.2974" lon="5.33257">
        <ele>616</ele>
        <time>2021-01-15T11:34:58Z</time>
      </trkpt>
      <trkpt lat="45.29758" lon="5.33234">
        <ele>618</ele>
        <time>2021-01-15T11:35:04Z</time>
      </trkpt>
      <trkpt lat="45.29775" lon="5.33207">
        <ele>619</ele>
        <time>2021-01-15T11:35:10Z</time>
      </trkpt>
      <trkpt lat="45.29781" lon="5.33188">
        <ele>621</ele>
        <time>2021-01-15T11:35:13Z</time>
      </trkpt>
      <trkpt lat="45.29792" lon="5.33161">
        <ele>624</ele>
        <time>2021-01-15T11:35:18Z</time>
      </trkpt>
      <trkpt lat="45.29892" lon="5.33063">
        <ele>641</ele>
        <time>2021-01-15T11:35:47Z</time>
      </trkpt>
      <trkpt lat="45.29927" lon="5.33052">
        <ele>642</ele>
        <time>2021-01-15T11:35:55Z</time>
      </trkpt>
      <trkpt lat="45.29964" lon="5.33052">
        <ele>644</ele>
        <time>2021-01-15T11:36:04Z</time>
      </trkpt>
      <trkpt lat="45.30004" lon="5.33041">
        <ele>648</ele>
        <time>2021-01-15T11:36:13Z</time>
      </trkpt>
      <trkpt lat="45.30069" lon="5.33127">
        <ele>636</ele>
        <time>2021-01-15T11:36:34Z</time>
      </trkpt>
      <trkpt lat="45.30102" lon="5.33156">
        <ele>631</ele>
        <time>2021-01-15T11:36:43Z</time>
      </trkpt>
      <trkpt lat="45.30132" lon="5.33198">
        <ele>627</ele>
        <time>2021-01-15T11:36:53Z</time>
      </trkpt>
      <trkpt lat="45.30155" lon="5.33243">
        <ele>624</ele>
        <time>2021-01-15T11:37:02Z</time>
      </trkpt>
      <trkpt lat="45.30176" lon="5.33277">
        <ele>624</ele>
        <time>2021-01-15T11:37:09Z</time>
      </trkpt>
      <trkpt lat="45.30193" lon="5.33321">
        <ele>621</ele>
        <time>2021-01-15T11:37:18Z</time>
      </trkpt>
      <trkpt lat="45.30213" lon="5.33386">
        <ele>611</ele>
        <time>2021-01-15T11:37:29Z</time>
      </trkpt>
      <trkpt lat="45.30241" lon="5.33425">
        <ele>607</ele>
        <time>2021-01-15T11:37:38Z</time>
      </trkpt>
      <trkpt lat="45.30258" lon="5.33438">
        <ele>605</ele>
        <time>2021-01-15T11:37:43Z</time>
      </trkpt>
      <trkpt lat="45.30272" lon="5.33442">
        <ele>603</ele>
        <time>2021-01-15T11:37:46Z</time>
      </trkpt>
      <trkpt lat="45.30282" lon="5.33442">
        <ele>602</ele>
        <time>2021-01-15T11:37:49Z</time>
      </trkpt>
      <trkpt lat="45.30293" lon="5.33429">
        <ele>603</ele>
        <time>2021-01-15T11:37:52Z</time>
      </trkpt>
      <trkpt lat="45.303" lon="5.33411">
        <ele>604</ele>
        <time>2021-01-15T11:37:55Z</time>
      </trkpt>
      <trkpt lat="45.30319" lon="5.333">
        <ele>605</ele>
        <time>2021-01-15T11:38:14Z</time>
      </trkpt>
      <trkpt lat="45.30326" lon="5.33278">
        <ele>606</ele>
        <time>2021-01-15T11:38:18Z</time>
      </trkpt>
      <trkpt lat="45.30341" lon="5.33269">
        <ele>605</ele>
        <time>2021-01-15T11:38:22Z</time>
      </trkpt>
      <trkpt lat="45.30366" lon="5.33271">
        <ele>602</ele>
        <time>2021-01-15T11:38:28Z</time>
      </trkpt>
      <trkpt lat="45.30441" lon="5.33308">
        <ele>587</ele>
        <time>2021-01-15T11:38:46Z</time>
      </trkpt>
      <trkpt lat="45.30466" lon="5.33315">
        <ele>581</ele>
        <time>2021-01-15T11:38:52Z</time>
      </trkpt>
      <trkpt lat="45.30492" lon="5.3331">
        <ele>578</ele>
        <time>2021-01-15T11:38:58Z</time>
      </trkpt>
      <trkpt lat="45.30526" lon="5.33268">
        <ele>576</ele>
        <time>2021-01-15T11:39:09Z</time>
      </trkpt>
      <trkpt lat="45.3052" lon="5.33301">
        <ele>573</ele>
        <time>2021-01-15T11:39:14Z</time>
      </trkpt>
      <trkpt lat="45.30501" lon="5.33347">
        <ele>571</ele>
        <time>2021-01-15T11:39:23Z</time>
      </trkpt>
      <trkpt lat="45.30487" lon="5.3337">
        <ele>570</ele>
        <time>2021-01-15T11:39:28Z</time>
      </trkpt>
      <trkpt lat="45.30466" lon="5.33394">
        <ele>572</ele>
        <time>2021-01-15T11:39:35Z</time>
      </trkpt>
      <trkpt lat="45.30463" lon="5.33416">
        <ele>570</ele>
        <time>2021-01-15T11:39:38Z</time>
      </trkpt>
      <trkpt lat="45.30464" lon="5.33435">
        <ele>570</ele>
        <time>2021-01-15T11:39:41Z</time>
      </trkpt>
      <trkpt lat="45.30479" lon="5.33529">
        <ele>567</ele>
        <time>2021-01-15T11:39:57Z</time>
      </trkpt>
      <trkpt lat="45.30471" lon="5.33539">
        <ele>568</ele>
        <time>2021-01-15T11:40:00Z</time>
      </trkpt>
      <trkpt lat="45.30443" lon="5.33553">
        <ele>571</ele>
        <time>2021-01-15T11:40:07Z</time>
      </trkpt>
      <trkpt lat="45.30436" lon="5.3357">
        <ele>571</ele>
        <time>2021-01-15T11:40:10Z</time>
      </trkpt>
      <trkpt lat="45.30426" lon="5.33586">
        <ele>570</ele>
        <time>2021-01-15T11:40:13Z</time>
      </trkpt>
      <trkpt lat="45.3041" lon="5.3362">
        <ele>568</ele>
        <time>2021-01-15T11:40:20Z</time>
      </trkpt>
      <trkpt lat="45.30381" lon="5.3363">
        <ele>566</ele>
        <time>2021-01-15T11:40:27Z</time>
      </trkpt>
      <trkpt lat="45.30334" lon="5.3361">
        <ele>571</ele>
        <time>2021-01-15T11:40:38Z</time>
      </trkpt>
      <trkpt lat="45.30206" lon="5.33544">
        <ele>573</ele>
        <time>2021-01-15T11:41:10Z</time>
      </trkpt>
      <trkpt lat="45.30115" lon="5.33474">
        <ele>574</ele>
        <time>2021-01-15T11:41:34Z</time>
      </trkpt>
      <trkpt lat="45.30073" lon="5.33431">
        <ele>576</ele>
        <time>2021-01-15T11:41:47Z</time>
      </trkpt>
      <trkpt lat="45.30044" lon="5.33382">
        <ele>584</ele>
        <time>2021-01-15T11:41:57Z</time>
      </trkpt>
      <trkpt lat="45.30034" lon="5.33373">
        <ele>586</ele>
        <time>2021-01-15T11:42:00Z</time>
      </trkpt>
      <trkpt lat="45.30026" lon="5.33372">
        <ele>586</ele>
        <time>2021-01-15T11:42:02Z</time>
      </trkpt>
      <trkpt lat="45.30016" lon="5.33382">
        <ele>582</ele>
        <time>2021-01-15T11:42:05Z</time>
      </trkpt>
      <trkpt lat="45.3" lon="5.33405">
        <ele>574</ele>
        <time>2021-01-15T11:42:10Z</time>
      </trkpt>
      <trkpt lat="45.2998" lon="5.33428">
        <ele>569</ele>
        <time>2021-01-15T11:42:16Z</time>
      </trkpt>
      <trkpt lat="45.29948" lon="5.33477">
        <ele>560</ele>
        <time>2021-01-15T11:42:27Z</time>
      </trkpt>
      <trkpt lat="45.29934" lon="5.33486">
        <ele>559</ele>
        <time>2021-01-15T11:42:30Z</time>
      </trkpt>
      <trkpt lat="45.29919" lon="5.33487">
        <ele>560</ele>
        <time>2021-01-15T11:42:34Z</time>
      </trkpt>
      <trkpt lat="45.29906" lon="5.33482">
        <ele>561</ele>
        <time>2021-01-15T11:42:37Z</time>
      </trkpt>
      <trkpt lat="45.29892" lon="5.33469">
        <ele>564</ele>
        <time>2021-01-15T11:42:41Z</time>
      </trkpt>
      <trkpt lat="45.29866" lon="5.33413">
        <ele>573</ele>
        <time>2021-01-15T11:42:52Z</time>
      </trkpt>
      <trkpt lat="45.29857" lon="5.33406">
        <ele>574</ele>
        <time>2021-01-15T11:42:54Z</time>
      </trkpt>
      <trkpt lat="45.29851" lon="5.33409">
        <ele>573</ele>
        <time>2021-01-15T11:42:56Z</time>
      </trkpt>
      <trkpt lat="45.29822" lon="5.33445">
        <ele>568</ele>
        <time>2021-01-15T11:43:05Z</time>
      </trkpt>
      <trkpt lat="45.2978" lon="5.33502">
        <ele>562</ele>
        <time>2021-01-15T11:43:18Z</time>
      </trkpt>
      <trkpt lat="45.29766" lon="5.33513">
        <ele>562</ele>
        <time>2021-01-15T11:43:22Z</time>
      </trkpt>
      <trkpt lat="45.29752" lon="5.33514">
        <ele>563</ele>
        <time>2021-01-15T11:43:25Z</time>
      </trkpt>
      <trkpt lat="45.29732" lon="5.33499">
        <ele>567</ele>
        <time>2021-01-15T11:43:31Z</time>
      </trkpt>
      <trkpt lat="45.29717" lon="5.33494">
        <ele>570</ele>
        <time>2021-01-15T11:43:34Z</time>
      </trkpt>
      <trkpt lat="45.29715" lon="5.33503">
        <ele>568</ele>
        <time>2021-01-15T11:43:36Z</time>
      </trkpt>
      <trkpt lat="45.29717" lon="5.33524">
        <ele>565</ele>
        <time>2021-01-15T11:43:39Z</time>
      </trkpt>
      <trkpt lat="45.29694" lon="5.33602">
        <ele>557</ele>
        <time>2021-01-15T11:43:53Z</time>
      </trkpt>
      <trkpt lat="45.29628" lon="5.33706">
        <ele>554</ele>
        <time>2021-01-15T11:44:16Z</time>
      </trkpt>
      <trkpt lat="45.29648" lon="5.33695">
        <ele>551</ele>
        <time>2021-01-15T11:44:21Z</time>
      </trkpt>
      <trkpt lat="45.29672" lon="5.33691">
        <ele>546</ele>
        <time>2021-01-15T11:44:27Z</time>
      </trkpt>
      <trkpt lat="45.29694" lon="5.33682">
        <ele>544</ele>
        <time>2021-01-15T11:44:32Z</time>
      </trkpt>
      <trkpt lat="45.29718" lon="5.33675">
        <ele>541</ele>
        <time>2021-01-15T11:44:38Z</time>
      </trkpt>
      <trkpt lat="45.29746" lon="5.33684">
        <ele>536</ele>
        <time>2021-01-15T11:44:45Z</time>
      </trkpt>
      <trkpt lat="45.29774" lon="5.33676">
        <ele>534</ele>
        <time>2021-01-15T11:44:51Z</time>
      </trkpt>
      <trkpt lat="45.29799" lon="5.3369">
        <ele>530</ele>
        <time>2021-01-15T11:44:58Z</time>
      </trkpt>
      <trkpt lat="45.29812" lon="5.33694">
        <ele>528</ele>
        <time>2021-01-15T11:45:01Z</time>
      </trkpt>
      <trkpt lat="45.29825" lon="5.33691">
        <ele>528</ele>
        <time>2021-01-15T11:45:04Z</time>
      </trkpt>
      <trkpt lat="45.29845" lon="5.33674">
        <ele>529</ele>
        <time>2021-01-15T11:45:09Z</time>
      </trkpt>
      <trkpt lat="45.29858" lon="5.33668">
        <ele>529</ele>
        <time>2021-01-15T11:45:12Z</time>
      </trkpt>
      <trkpt lat="45.29866" lon="5.33671">
        <ele>529</ele>
        <time>2021-01-15T11:45:14Z</time>
      </trkpt>
      <trkpt lat="45.29879" lon="5.3369">
        <ele>525</ele>
        <time>2021-01-15T11:45:19Z</time>
      </trkpt>
      <trkpt lat="45.29889" lon="5.337">
        <ele>523</ele>
        <time>2021-01-15T11:45:22Z</time>
      </trkpt>
      <trkpt lat="45.299" lon="5.33705">
        <ele>521</ele>
        <time>2021-01-15T11:45:24Z</time>
      </trkpt>
      <trkpt lat="45.29919" lon="5.33708">
        <ele>519</ele>
        <time>2021-01-15T11:45:29Z</time>
      </trkpt>
      <trkpt lat="45.29936" lon="5.33704">
        <ele>517</ele>
        <time>2021-01-15T11:45:33Z</time>
      </trkpt>
      <trkpt lat="45.29939" lon="5.33713">
        <ele>515</ele>
        <time>2021-01-15T11:45:34Z</time>
      </trkpt>
      <trkpt lat="45.29926" lon="5.33754">
        <ele>508</ele>
        <time>2021-01-15T11:45:42Z</time>
      </trkpt>
      <trkpt lat="45.29925" lon="5.33765">
        <ele>507</ele>
        <time>2021-01-15T11:45:44Z</time>
      </trkpt>
      <trkpt lat="45.2993" lon="5.33792">
        <ele>502</ele>
        <time>2021-01-15T11:45:48Z</time>
      </trkpt>
      <trkpt lat="45.29923" lon="5.33834">
        <ele>496</ele>
        <time>2021-01-15T11:45:55Z</time>
      </trkpt>
      <trkpt lat="45.29913" lon="5.33865">
        <ele>498</ele>
        <time>2021-01-15T11:46:01Z</time>
      </trkpt>
      <trkpt lat="45.29911" lon="5.33889">
        <ele>499</ele>
        <time>2021-01-15T11:46:05Z</time>
      </trkpt>
      <trkpt lat="45.29918" lon="5.33917">
        <ele>499</ele>
        <time>2021-01-15T11:46:10Z</time>
      </trkpt>
      <trkpt lat="45.29953" lon="5.33983">
        <ele>502</ele>
        <time>2021-01-15T11:46:23Z</time>
      </trkpt>
      <trkpt lat="45.29959" lon="5.34003">
        <ele>503</ele>
        <time>2021-01-15T11:46:27Z</time>
      </trkpt>
      <trkpt lat="45.29964" lon="5.34025">
        <ele>505</ele>
        <time>2021-01-15T11:46:31Z</time>
      </trkpt>
      <trkpt lat="45.29976" lon="5.34056">
        <ele>508</ele>
        <time>2021-01-15T11:46:37Z</time>
      </trkpt>
      <trkpt lat="45.2999" lon="5.34011">
        <ele>505</ele>
        <time>2021-01-15T11:46:45Z</time>
      </trkpt>
      <trkpt lat="45.29994" lon="5.33999">
        <ele>504</ele>
        <time>2021-01-15T11:46:47Z</time>
      </trkpt>
      <trkpt lat="45.30061" lon="5.33878">
        <ele>498</ele>
        <time>2021-01-15T11:47:12Z</time>
      </trkpt>
      <trkpt lat="45.30073" lon="5.33864">
        <ele>497</ele>
        <time>2021-01-15T11:47:16Z</time>
      </trkpt>
      <trkpt lat="45.30089" lon="5.33864">
        <ele>497</ele>
        <time>2021-01-15T11:47:19Z</time>
      </trkpt>
      <trkpt lat="45.30194" lon="5.33876">
        <ele>491</ele>
        <time>2021-01-15T11:47:44Z</time>
      </trkpt>
      <trkpt lat="45.30264" lon="5.33884">
        <ele>488</ele>
        <time>2021-01-15T11:48:00Z</time>
      </trkpt>
      <trkpt lat="45.30281" lon="5.33891">
        <ele>487</ele>
        <time>2021-01-15T11:48:05Z</time>
      </trkpt>
      <trkpt lat="45.30297" lon="5.33901">
        <ele>486</ele>
        <time>2021-01-15T11:48:09Z</time>
      </trkpt>
      <trkpt lat="45.30398" lon="5.33985">
        <ele>481</ele>
        <time>2021-01-15T11:48:36Z</time>
      </trkpt>
      <trkpt lat="45.30419" lon="5.33999">
        <ele>479</ele>
        <time>2021-01-15T11:48:41Z</time>
      </trkpt>
      <trkpt lat="45.30435" lon="5.34001">
        <ele>478</ele>
        <time>2021-01-15T11:48:45Z</time>
      </trkpt>
      <trkpt lat="45.3045" lon="5.33999">
        <ele>477</ele>
        <time>2021-01-15T11:48:49Z</time>
      </trkpt>
      <trkpt lat="45.30476" lon="5.33992">
        <ele>476</ele>
        <time>2021-01-15T11:48:55Z</time>
      </trkpt>
      <trkpt lat="45.30485" lon="5.33988">
        <ele>476</ele>
        <time>2021-01-15T11:48:57Z</time>
      </trkpt>
      <trkpt lat="45.30492" lon="5.33986">
        <ele>476</ele>
        <time>2021-01-15T11:48:59Z</time>
      </trkpt>
      <trkpt lat="45.30508" lon="5.33976">
        <ele>477</ele>
        <time>2021-01-15T11:49:03Z</time>
      </trkpt>
      <trkpt lat="45.30522" lon="5.33969">
        <ele>477</ele>
        <time>2021-01-15T11:49:06Z</time>
      </trkpt>
      <trkpt lat="45.3054" lon="5.33952">
        <ele>478</ele>
        <time>2021-01-15T11:49:11Z</time>
      </trkpt>
      <trkpt lat="45.30554" lon="5.33983">
        <ele>474</ele>
        <time>2021-01-15T11:49:17Z</time>
      </trkpt>
      <trkpt lat="45.30558" lon="5.3402">
        <ele>474</ele>
        <time>2021-01-15T11:49:24Z</time>
      </trkpt>
      <trkpt lat="45.30554" lon="5.34035">
        <ele>474</ele>
        <time>2021-01-15T11:49:26Z</time>
      </trkpt>
      <trkpt lat="45.30552" lon="5.3408">
        <ele>476</ele>
        <time>2021-01-15T11:49:34Z</time>
      </trkpt>
      <trkpt lat="45.30546" lon="5.34103">
        <ele>478</ele>
        <time>2021-01-15T11:49:38Z</time>
      </trkpt>
      <trkpt lat="45.30542" lon="5.34116">
        <ele>478</ele>
        <time>2021-01-15T11:49:40Z</time>
      </trkpt>
      <trkpt lat="45.30505" lon="5.34206">
        <ele>483</ele>
        <time>2021-01-15T11:49:57Z</time>
      </trkpt>
      <trkpt lat="45.30489" lon="5.34258">
        <ele>485</ele>
        <time>2021-01-15T11:50:06Z</time>
      </trkpt>
      <trkpt lat="45.30474" lon="5.34328">
        <ele>489</ele>
        <time>2021-01-15T11:50:18Z</time>
      </trkpt>
      <trkpt lat="45.30453" lon="5.34395">
        <ele>491</ele>
        <time>2021-01-15T11:50:30Z</time>
      </trkpt>
      <trkpt lat="45.30442" lon="5.34437">
        <ele>492</ele>
        <time>2021-01-15T11:50:38Z</time>
      </trkpt>
      <trkpt lat="45.30434" lon="5.34509">
        <ele>496</ele>
        <time>2021-01-15T11:50:50Z</time>
      </trkpt>
      <trkpt lat="45.30421" lon="5.34574">
        <ele>498</ele>
        <time>2021-01-15T11:51:01Z</time>
      </trkpt>
      <trkpt lat="45.30418" lon="5.34677">
        <ele>509</ele>
        <time>2021-01-15T11:51:18Z</time>
      </trkpt>
      <trkpt lat="45.30387" lon="5.34803">
        <ele>516</ele>
        <time>2021-01-15T11:51:40Z</time>
      </trkpt>
      <trkpt lat="45.30383" lon="5.34844">
        <ele>518</ele>
        <time>2021-01-15T11:51:47Z</time>
      </trkpt>
      <trkpt lat="45.30382" lon="5.34893">
        <ele>518</ele>
        <time>2021-01-15T11:51:55Z</time>
      </trkpt>
      <trkpt lat="45.30387" lon="5.34944">
        <ele>521</ele>
        <time>2021-01-15T11:52:03Z</time>
      </trkpt>
      <trkpt lat="45.30403" lon="5.34978">
        <ele>526</ele>
        <time>2021-01-15T11:52:10Z</time>
      </trkpt>
      <trkpt lat="45.30402" lon="5.35025">
        <ele>526</ele>
        <time>2021-01-15T11:52:17Z</time>
      </trkpt>
      <trkpt lat="45.30409" lon="5.35082">
        <ele>528</ele>
        <time>2021-01-15T11:52:27Z</time>
      </trkpt>
      <trkpt lat="45.30421" lon="5.35148">
        <ele>531</ele>
        <time>2021-01-15T11:52:38Z</time>
      </trkpt>
      <trkpt lat="45.30438" lon="5.35194">
        <ele>534</ele>
        <time>2021-01-15T11:52:47Z</time>
      </trkpt>
      <trkpt lat="45.3047" lon="5.35221">
        <ele>540</ele>
        <time>2021-01-15T11:52:55Z</time>
      </trkpt>
      <trkpt lat="45.30504" lon="5.35246">
        <ele>545</ele>
        <time>2021-01-15T11:53:04Z</time>
      </trkpt>
      <trkpt lat="45.3054" lon="5.35246">
        <ele>552</ele>
        <time>2021-01-15T11:53:13Z</time>
      </trkpt>
      <trkpt lat="45.30563" lon="5.35258">
        <ele>556</ele>
        <time>2021-01-15T11:53:18Z</time>
      </trkpt>
      <trkpt lat="45.30568" lon="5.35282">
        <ele>557</ele>
        <time>2021-01-15T11:53:23Z</time>
      </trkpt>
      <trkpt lat="45.30562" lon="5.35298">
        <ele>556</ele>
        <time>2021-01-15T11:53:26Z</time>
      </trkpt>
      <trkpt lat="45.30542" lon="5.35328">
        <ele>553</ele>
        <time>2021-01-15T11:53:32Z</time>
      </trkpt>
      <trkpt lat="45.30534" lon="5.3535">
        <ele>554</ele>
        <time>2021-01-15T11:53:36Z</time>
      </trkpt>
      <trkpt lat="45.30528" lon="5.35374">
        <ele>556</ele>
        <time>2021-01-15T11:53:41Z</time>
      </trkpt>
      <trkpt lat="45.30526" lon="5.35407">
        <ele>559</ele>
        <time>2021-01-15T11:53:46Z</time>
      </trkpt>
      <trkpt lat="45.30524" lon="5.35419">
        <ele>560</ele>
        <time>2021-01-15T11:53:48Z</time>
      </trkpt>
      <trkpt lat="45.3052" lon="5.35428">
        <ele>560</ele>
        <time>2021-01-15T11:53:50Z</time>
      </trkpt>
      <trkpt lat="45.30515" lon="5.35438">
        <ele>560</ele>
        <time>2021-01-15T11:53:52Z</time>
      </trkpt>
      <trkpt lat="45.30502" lon="5.35478">
        <ele>562</ele>
        <time>2021-01-15T11:53:59Z</time>
      </trkpt>
      <trkpt lat="45.30495" lon="5.35539">
        <ele>563</ele>
        <time>2021-01-15T11:54:09Z</time>
      </trkpt>
      <trkpt lat="45.305" lon="5.35585">
        <ele>565</ele>
        <time>2021-01-15T11:54:17Z</time>
      </trkpt>
      <trkpt lat="45.30524" lon="5.35644">
        <ele>568</ele>
        <time>2021-01-15T11:54:28Z</time>
      </trkpt>
      <trkpt lat="45.30589" lon="5.35734">
        <ele>578</ele>
        <time>2021-01-15T11:54:49Z</time>
      </trkpt>
      <trkpt lat="45.306" lon="5.35766">
        <ele>580</ele>
        <time>2021-01-15T11:54:55Z</time>
      </trkpt>
      <trkpt lat="45.30603" lon="5.35783">
        <ele>581</ele>
        <time>2021-01-15T11:54:58Z</time>
      </trkpt>
      <trkpt lat="45.30601" lon="5.35821">
        <ele>580</ele>
        <time>2021-01-15T11:55:04Z</time>
      </trkpt>
      <trkpt lat="45.3054" lon="5.35879">
        <ele>576</ele>
        <time>2021-01-15T11:55:21Z</time>
      </trkpt>
      <trkpt lat="45.30511" lon="5.35901">
        <ele>575</ele>
        <time>2021-01-15T11:55:29Z</time>
      </trkpt>
      <trkpt lat="45.30506" lon="5.35903">
        <ele>575</ele>
        <time>2021-01-15T11:55:30Z</time>
      </trkpt>
      <trkpt lat="45.30485" lon="5.35933">
        <ele>575</ele>
        <time>2021-01-15T11:55:37Z</time>
      </trkpt>
      <trkpt lat="45.30456" lon="5.35997">
        <ele>576</ele>
        <time>2021-01-15T11:55:50Z</time>
      </trkpt>
      <trkpt lat="45.30443" lon="5.36038">
        <ele>575</ele>
        <time>2021-01-15T11:55:57Z</time>
      </trkpt>
      <trkpt lat="45.30438" lon="5.36054">
        <ele>575</ele>
        <time>2021-01-15T11:56:00Z</time>
      </trkpt>
      <trkpt lat="45.30437" lon="5.36075">
        <ele>575</ele>
        <time>2021-01-15T11:56:03Z</time>
      </trkpt>
      <trkpt lat="45.30437" lon="5.36088">
        <ele>575</ele>
        <time>2021-01-15T11:56:06Z</time>
      </trkpt>
      <trkpt lat="45.30443" lon="5.36116">
        <ele>573</ele>
        <time>2021-01-15T11:56:10Z</time>
      </trkpt>
      <trkpt lat="45.30474" lon="5.36154">
        <ele>576</ele>
        <time>2021-01-15T11:56:20Z</time>
      </trkpt>
      <trkpt lat="45.30536" lon="5.36225">
        <ele>576</ele>
        <time>2021-01-15T11:56:39Z</time>
      </trkpt>
      <trkpt lat="45.30563" lon="5.3625">
        <ele>575</ele>
        <time>2021-01-15T11:56:46Z</time>
      </trkpt>
      <trkpt lat="45.30591" lon="5.36268">
        <ele>579</ele>
        <time>2021-01-15T11:56:53Z</time>
      </trkpt>
      <trkpt lat="45.30613" lon="5.36286">
        <ele>581</ele>
        <time>2021-01-15T11:56:59Z</time>
      </trkpt>
      <trkpt lat="45.3063" lon="5.36304">
        <ele>582</ele>
        <time>2021-01-15T11:57:04Z</time>
      </trkpt>
      <trkpt lat="45.30658" lon="5.36331">
        <ele>581</ele>
        <time>2021-01-15T11:57:12Z</time>
      </trkpt>
      <trkpt lat="45.30689" lon="5.36364">
        <ele>585</ele>
        <time>2021-01-15T11:57:21Z</time>
      </trkpt>
      <trkpt lat="45.30763" lon="5.36471">
        <ele>590</ele>
        <time>2021-01-15T11:57:46Z</time>
      </trkpt>
      <trkpt lat="45.30788" lon="5.36525">
        <ele>593</ele>
        <time>2021-01-15T11:57:56Z</time>
      </trkpt>
      <trkpt lat="45.30806" lon="5.36573">
        <ele>594</ele>
        <time>2021-01-15T11:58:05Z</time>
      </trkpt>
      <trkpt lat="45.30819" lon="5.36635">
        <ele>594</ele>
        <time>2021-01-15T11:58:16Z</time>
      </trkpt>
      <trkpt lat="45.30827" lon="5.36775">
        <ele>594</ele>
        <time>2021-01-15T11:58:39Z</time>
      </trkpt>
      <trkpt lat="45.30836" lon="5.36823">
        <ele>594</ele>
        <time>2021-01-15T11:58:47Z</time>
      </trkpt>
      <trkpt lat="45.30837" lon="5.3686">
        <ele>594</ele>
        <time>2021-01-15T11:58:53Z</time>
      </trkpt>
      <trkpt lat="45.30836" lon="5.36901">
        <ele>594</ele>
        <time>2021-01-15T11:59:00Z</time>
      </trkpt>
      <trkpt lat="45.30832" lon="5.36949">
        <ele>593</ele>
        <time>2021-01-15T11:59:08Z</time>
      </trkpt>
      <trkpt lat="45.30829" lon="5.36988">
        <ele>592</ele>
        <time>2021-01-15T11:59:14Z</time>
      </trkpt>
      <trkpt lat="45.3083" lon="5.37051">
        <ele>588</ele>
        <time>2021-01-15T11:59:25Z</time>
      </trkpt>
      <trkpt lat="45.30813" lon="5.37053">
        <ele>590</ele>
        <time>2021-01-15T11:59:29Z</time>
      </trkpt>
      <trkpt lat="45.30801" lon="5.37056">
        <ele>591</ele>
        <time>2021-01-15T11:59:31Z</time>
      </trkpt>
      <trkpt lat="45.30791" lon="5.37065">
        <ele>591</ele>
        <time>2021-01-15T11:59:34Z</time>
      </trkpt>
      <trkpt lat="45.30785" lon="5.37074">
        <ele>592</ele>
        <time>2021-01-15T11:59:36Z</time>
      </trkpt>
      <trkpt lat="45.30781" lon="5.37087">
        <ele>592</ele>
        <time>2021-01-15T11:59:39Z</time>
      </trkpt>
      <trkpt lat="45.30779" lon="5.371">
        <ele>592</ele>
        <time>2021-01-15T11:59:41Z</time>
      </trkpt>
      <trkpt lat="45.30777" lon="5.37111">
        <ele>592</ele>
        <time>2021-01-15T11:59:43Z</time>
      </trkpt>
      <trkpt lat="45.3076" lon="5.37336">
        <ele>597</ele>
        <time>2021-01-15T12:00:20Z</time>
      </trkpt>
      <trkpt lat="45.30756" lon="5.3737">
        <ele>595</ele>
        <time>2021-01-15T12:00:25Z</time>
      </trkpt>
      <trkpt lat="45.30754" lon="5.37387">
        <ele>594</ele>
        <time>2021-01-15T12:00:28Z</time>
      </trkpt>
      <trkpt lat="45.30749" lon="5.37407">
        <ele>594</ele>
        <time>2021-01-15T12:00:32Z</time>
      </trkpt>
      <trkpt lat="45.3074" lon="5.37421">
        <ele>594</ele>
        <time>2021-01-15T12:00:35Z</time>
      </trkpt>
      <trkpt lat="45.3071" lon="5.37442">
        <ele>595</ele>
        <time>2021-01-15T12:00:43Z</time>
      </trkpt>
      <trkpt lat="45.30682" lon="5.37471">
        <ele>596</ele>
        <time>2021-01-15T12:00:51Z</time>
      </trkpt>
      <trkpt lat="45.30673" lon="5.37501">
        <ele>594</ele>
        <time>2021-01-15T12:00:56Z</time>
      </trkpt>
      <trkpt lat="45.30673" lon="5.3754">
        <ele>592</ele>
        <time>2021-01-15T12:01:03Z</time>
      </trkpt>
      <trkpt lat="45.30689" lon="5.37574">
        <ele>587</ele>
        <time>2021-01-15T12:01:09Z</time>
      </trkpt>
      <trkpt lat="45.3071" lon="5.37596">
        <ele>584</ele>
        <time>2021-01-15T12:01:15Z</time>
      </trkpt>
      <trkpt lat="45.30775" lon="5.37658">
        <ele>579</ele>
        <time>2021-01-15T12:01:34Z</time>
      </trkpt>
      <trkpt lat="45.30849" lon="5.37744">
        <ele>573</ele>
        <time>2021-01-15T12:01:56Z</time>
      </trkpt>
      <trkpt lat="45.30859" lon="5.37767">
        <ele>572</ele>
        <time>2021-01-15T12:02:00Z</time>
      </trkpt>
      <trkpt lat="45.30861" lon="5.37794">
        <ele>570</ele>
        <time>2021-01-15T12:02:05Z</time>
      </trkpt>
      <trkpt lat="45.30856" lon="5.3782">
        <ele>570</ele>
        <time>2021-01-15T12:02:09Z</time>
      </trkpt>
      <trkpt lat="45.30832" lon="5.37875">
        <ele>569</ele>
        <time>2021-01-15T12:02:20Z</time>
      </trkpt>
      <trkpt lat="45.30812" lon="5.37901">
        <ele>567</ele>
        <time>2021-01-15T12:02:26Z</time>
      </trkpt>
      <trkpt lat="45.30794" lon="5.37909">
        <ele>567</ele>
        <time>2021-01-15T12:02:31Z</time>
      </trkpt>
      <trkpt lat="45.30762" lon="5.37915">
        <ele>568</ele>
        <time>2021-01-15T12:02:38Z</time>
      </trkpt>
      <trkpt lat="45.30741" lon="5.37923">
        <ele>569</ele>
        <time>2021-01-15T12:02:43Z</time>
      </trkpt>
      <trkpt lat="45.30728" lon="5.37939">
        <ele>571</ele>
        <time>2021-01-15T12:02:47Z</time>
      </trkpt>
      <trkpt lat="45.30722" lon="5.37954">
        <ele>571</ele>
        <time>2021-01-15T12:02:50Z</time>
      </trkpt>
      <trkpt lat="45.30724" lon="5.37993">
        <ele>567</ele>
        <time>2021-01-15T12:02:57Z</time>
      </trkpt>
      <trkpt lat="45.30728" lon="5.38012">
        <ele>565</ele>
        <time>2021-01-15T12:03:00Z</time>
      </trkpt>
      <trkpt lat="45.30767" lon="5.38111">
        <ele>549</ele>
        <time>2021-01-15T12:03:18Z</time>
      </trkpt>
      <trkpt lat="45.30771" lon="5.38129">
        <ele>546</ele>
        <time>2021-01-15T12:03:22Z</time>
      </trkpt>
      <trkpt lat="45.3077" lon="5.38147">
        <ele>545</ele>
        <time>2021-01-15T12:03:25Z</time>
      </trkpt>
      <trkpt lat="45.30763" lon="5.38162">
        <ele>547</ele>
        <time>2021-01-15T12:03:27Z</time>
      </trkpt>
      <trkpt lat="45.3073" lon="5.38206">
        <ele>547</ele>
        <time>2021-01-15T12:03:38Z</time>
      </trkpt>
      <trkpt lat="45.307" lon="5.38236">
        <ele>547</ele>
        <time>2021-01-15T12:03:47Z</time>
      </trkpt>
      <trkpt lat="45.30657" lon="5.38262">
        <ele>550</ele>
        <time>2021-01-15T12:03:58Z</time>
      </trkpt>
      <trkpt lat="45.3064" lon="5.38282">
        <ele>547</ele>
        <time>2021-01-15T12:04:03Z</time>
      </trkpt>
      <trkpt lat="45.30626" lon="5.38337">
        <ele>533</ele>
        <time>2021-01-15T12:04:12Z</time>
      </trkpt>
      <trkpt lat="45.30617" lon="5.38347">
        <ele>534</ele>
        <time>2021-01-15T12:04:15Z</time>
      </trkpt>
      <trkpt lat="45.30607" lon="5.3835">
        <ele>535</ele>
        <time>2021-01-15T12:04:17Z</time>
      </trkpt>
      <trkpt lat="45.30562" lon="5.38347">
        <ele>542</ele>
        <time>2021-01-15T12:04:28Z</time>
      </trkpt>
      <trkpt lat="45.3055" lon="5.38349">
        <ele>544</ele>
        <time>2021-01-15T12:04:31Z</time>
      </trkpt>
      <trkpt lat="45.30542" lon="5.38359">
        <ele>546</ele>
        <time>2021-01-15T12:04:33Z</time>
      </trkpt>
      <trkpt lat="45.30539" lon="5.38378">
        <ele>546</ele>
        <time>2021-01-15T12:04:36Z</time>
      </trkpt>
      <trkpt lat="45.30547" lon="5.38394">
        <ele>544</ele>
        <time>2021-01-15T12:04:40Z</time>
      </trkpt>
      <trkpt lat="45.30619" lon="5.38452">
        <ele>525</ele>
        <time>2021-01-15T12:04:59Z</time>
      </trkpt>
      <trkpt lat="45.30625" lon="5.3847">
        <ele>523</ele>
        <time>2021-01-15T12:05:02Z</time>
      </trkpt>
      <trkpt lat="45.30615" lon="5.38496">
        <ele>525</ele>
        <time>2021-01-15T12:05:07Z</time>
      </trkpt>
      <trkpt lat="45.30574" lon="5.38583">
        <ele>524</ele>
        <time>2021-01-15T12:05:24Z</time>
      </trkpt>
      <trkpt lat="45.30533" lon="5.38698">
        <ele>516</ele>
        <time>2021-01-15T12:05:45Z</time>
      </trkpt>
      <trkpt lat="45.30507" lon="5.38757">
        <ele>514</ele>
        <time>2021-01-15T12:05:57Z</time>
      </trkpt>
      <trkpt lat="45.30479" lon="5.38826">
        <ele>510</ele>
        <time>2021-01-15T12:06:10Z</time>
      </trkpt>
      <trkpt lat="45.30457" lon="5.38868">
        <ele>510</ele>
        <time>2021-01-15T12:06:19Z</time>
      </trkpt>
      <trkpt lat="45.30449" lon="5.3889">
        <ele>510</ele>
        <time>2021-01-15T12:06:23Z</time>
      </trkpt>
      <trkpt lat="45.30443" lon="5.38914">
        <ele>510</ele>
        <time>2021-01-15T12:06:27Z</time>
      </trkpt>
      <trkpt lat="45.30436" lon="5.38957">
        <ele>510</ele>
        <time>2021-01-15T12:06:34Z</time>
      </trkpt>
      <trkpt lat="45.30437" lon="5.38999">
        <ele>509</ele>
        <time>2021-01-15T12:06:41Z</time>
      </trkpt>
      <trkpt lat="45.3044" lon="5.39035">
        <ele>511</ele>
        <time>2021-01-15T12:06:47Z</time>
      </trkpt>
      <trkpt lat="45.30425" lon="5.39054">
        <ele>512</ele>
        <time>2021-01-15T12:06:52Z</time>
      </trkpt>
      <trkpt lat="45.30369" lon="5.39124">
        <ele>515</ele>
        <time>2021-01-15T12:07:09Z</time>
      </trkpt>
      <trkpt lat="45.30329" lon="5.3918">
        <ele>516</ele>
        <time>2021-01-15T12:07:22Z</time>
      </trkpt>
      <trkpt lat="45.30287" lon="5.39247">
        <ele>518</ele>
        <time>2021-01-15T12:07:37Z</time>
      </trkpt>
      <trkpt lat="45.30267" lon="5.39284">
        <ele>519</ele>
        <time>2021-01-15T12:07:45Z</time>
      </trkpt>
      <trkpt lat="45.30211" lon="5.39415">
        <ele>525</ele>
        <time>2021-01-15T12:08:10Z</time>
      </trkpt>
      <trkpt lat="45.30182" lon="5.39502">
        <ele>527</ele>
        <time>2021-01-15T12:08:26Z</time>
      </trkpt>
      <trkpt lat="45.30158" lon="5.39569">
        <ele>524</ele>
        <time>2021-01-15T12:08:38Z</time>
      </trkpt>
      <trkpt lat="45.30145" lon="5.39595">
        <ele>524</ele>
        <time>2021-01-15T12:08:43Z</time>
      </trkpt>
      <trkpt lat="45.30113" lon="5.39646">
        <ele>525</ele>
        <time>2021-01-15T12:08:54Z</time>
      </trkpt>
      <trkpt lat="45.30103" lon="5.39665">
        <ele>525</ele>
        <time>2021-01-15T12:08:58Z</time>
      </trkpt>
      <trkpt lat="45.30072" lon="5.39747">
        <ele>526</ele>
        <time>2021-01-15T12:09:14Z</time>
      </trkpt>
      <trkpt lat="45.3007" lon="5.3975">
        <ele>526</ele>
        <time>2021-01-15T12:09:14Z</time>
      </trkpt>
      <trkpt lat="45.30066" lon="5.39752">
        <ele>526</ele>
        <time>2021-01-15T12:09:15Z</time>
      </trkpt>
      <trkpt lat="45.30048" lon="5.3979">
        <ele>528</ele>
        <time>2021-01-15T12:09:23Z</time>
      </trkpt>
      <trkpt lat="45.30016" lon="5.39877">
        <ele>528</ele>
        <time>2021-01-15T12:09:39Z</time>
      </trkpt>
      <trkpt lat="45.3" lon="5.39914">
        <ele>526</ele>
        <time>2021-01-15T12:09:46Z</time>
      </trkpt>
      <trkpt lat="45.2996" lon="5.39985">
        <ele>535</ele>
        <time>2021-01-15T12:10:01Z</time>
      </trkpt>
      <trkpt lat="45.29943" lon="5.4001">
        <ele>537</ele>
        <time>2021-01-15T12:10:07Z</time>
      </trkpt>
      <trkpt lat="45.2992" lon="5.40026">
        <ele>538</ele>
        <time>2021-01-15T12:10:13Z</time>
      </trkpt>
      <trkpt lat="45.29862" lon="5.40056">
        <ele>540</ele>
        <time>2021-01-15T12:10:27Z</time>
      </trkpt>
      <trkpt lat="45.29811" lon="5.40093">
        <ele>540</ele>
        <time>2021-01-15T12:10:40Z</time>
      </trkpt>
      <trkpt lat="45.29768" lon="5.40126">
        <ele>539</ele>
        <time>2021-01-15T12:10:52Z</time>
      </trkpt>
      <trkpt lat="45.29762" lon="5.4013">
        <ele>538</ele>
        <time>2021-01-15T12:10:53Z</time>
      </trkpt>
      <trkpt lat="45.29753" lon="5.40137">
        <ele>538</ele>
        <time>2021-01-15T12:10:56Z</time>
      </trkpt>
      <trkpt lat="45.29674" lon="5.40197">
        <ele>544</ele>
        <time>2021-01-15T12:11:17Z</time>
      </trkpt>
      <trkpt lat="45.29588" lon="5.4025">
        <ele>543</ele>
        <time>2021-01-15T12:11:39Z</time>
      </trkpt>
      <trkpt lat="45.29573" lon="5.40256">
        <ele>543</ele>
        <time>2021-01-15T12:11:42Z</time>
      </trkpt>
      <trkpt lat="45.29547" lon="5.40272">
        <ele>545</ele>
        <time>2021-01-15T12:11:49Z</time>
      </trkpt>
      <trkpt lat="45.29532" lon="5.40287">
        <ele>546</ele>
        <time>2021-01-15T12:11:53Z</time>
      </trkpt>
      <trkpt lat="45.29511" lon="5.40299">
        <ele>544</ele>
        <time>2021-01-15T12:11:58Z</time>
      </trkpt>
      <trkpt lat="45.29505" lon="5.40285">
        <ele>542</ele>
        <time>2021-01-15T12:12:01Z</time>
      </trkpt>
      <trkpt lat="45.29511" lon="5.40299">
        <ele>544</ele>
        <time>2021-01-15T12:12:04Z</time>
      </trkpt>
      <trkpt lat="45.29532" lon="5.40287">
        <ele>546</ele>
        <time>2021-01-15T12:12:09Z</time>
      </trkpt>
      <trkpt lat="45.29547" lon="5.40272">
        <ele>545</ele>
        <time>2021-01-15T12:12:13Z</time>
      </trkpt>
      <trkpt lat="45.29573" lon="5.40256">
        <ele>543</ele>
        <time>2021-01-15T12:12:20Z</time>
      </trkpt>
      <trkpt lat="45.29588" lon="5.4025">
        <ele>543</ele>
        <time>2021-01-15T12:12:24Z</time>
      </trkpt>
      <trkpt lat="45.29674" lon="5.40197">
        <ele>544</ele>
        <time>2021-01-15T12:12:46Z</time>
      </trkpt>
      <trkpt lat="45.29753" lon="5.40137">
        <ele>538</ele>
        <time>2021-01-15T12:13:06Z</time>
      </trkpt>
      <trkpt lat="45.29762" lon="5.4013">
        <ele>538</ele>
        <time>2021-01-15T12:13:09Z</time>
      </trkpt>
      <trkpt lat="45.29768" lon="5.40126">
        <ele>539</ele>
        <time>2021-01-15T12:13:10Z</time>
      </trkpt>
      <trkpt lat="45.29811" lon="5.40093">
        <ele>540</ele>
        <time>2021-01-15T12:13:22Z</time>
      </trkpt>
      <trkpt lat="45.29818" lon="5.40093">
        <ele>540</ele>
        <time>2021-01-15T12:13:23Z</time>
      </trkpt>
      <trkpt lat="45.2982" lon="5.40095">
        <ele>540</ele>
        <time>2021-01-15T12:13:24Z</time>
      </trkpt>
      <trkpt lat="45.2988" lon="5.40084">
        <ele>545</ele>
        <time>2021-01-15T12:13:38Z</time>
      </trkpt>
      <trkpt lat="45.29951" lon="5.40077">
        <ele>554</ele>
        <time>2021-01-15T12:13:55Z</time>
      </trkpt>
      <trkpt lat="45.29974" lon="5.40073">
        <ele>557</ele>
        <time>2021-01-15T12:14:00Z</time>
      </trkpt>
      <trkpt lat="45.30071" lon="5.40036">
        <ele>564</ele>
        <time>2021-01-15T12:14:24Z</time>
      </trkpt>
      <trkpt lat="45.30083" lon="5.40024">
        <ele>565</ele>
        <time>2021-01-15T12:14:27Z</time>
      </trkpt>
      <trkpt lat="45.30112" lon="5.3997">
        <ele>562</ele>
        <time>2021-01-15T12:14:38Z</time>
      </trkpt>
      <trkpt lat="45.30156" lon="5.39911">
        <ele>559</ele>
        <time>2021-01-15T12:14:52Z</time>
      </trkpt>
      <trkpt lat="45.30167" lon="5.39909">
        <ele>561</ele>
        <time>2021-01-15T12:14:55Z</time>
      </trkpt>
      <trkpt lat="45.30177" lon="5.39918">
        <ele>563</ele>
        <time>2021-01-15T12:14:58Z</time>
      </trkpt>
      <trkpt lat="45.30185" lon="5.39928">
        <ele>565</ele>
        <time>2021-01-15T12:15:00Z</time>
      </trkpt>
      <trkpt lat="45.30231" lon="5.40008">
        <ele>579</ele>
        <time>2021-01-15T12:15:17Z</time>
      </trkpt>
      <trkpt lat="45.30242" lon="5.40045">
        <ele>585</ele>
        <time>2021-01-15T12:15:24Z</time>
      </trkpt>
      <trkpt lat="45.30258" lon="5.40077">
        <ele>592</ele>
        <time>2021-01-15T12:15:30Z</time>
      </trkpt>
      <trkpt lat="45.30273" lon="5.40099">
        <ele>598</ele>
        <time>2021-01-15T12:15:35Z</time>
      </trkpt>
      <trkpt lat="45.30212" lon="5.40045">
        <ele>586</ele>
        <time>2021-01-15T12:15:52Z</time>
      </trkpt>
      <trkpt lat="45.30203" lon="5.4004">
        <ele>585</ele>
        <time>2021-01-15T12:15:54Z</time>
      </trkpt>
      <trkpt lat="45.30194" lon="5.40039">
        <ele>585</ele>
        <time>2021-01-15T12:15:56Z</time>
      </trkpt>
      <trkpt lat="45.30189" lon="5.40041">
        <ele>586</ele>
        <time>2021-01-15T12:15:58Z</time>
      </trkpt>
      <trkpt lat="45.30184" lon="5.4005">
        <ele>587</ele>
        <time>2021-01-15T12:15:59Z</time>
      </trkpt>
      <trkpt lat="45.30183" lon="5.4006">
        <ele>589</ele>
        <time>2021-01-15T12:16:01Z</time>
      </trkpt>
      <trkpt lat="45.30195" lon="5.40067">
        <ele>590</ele>
        <time>2021-01-15T12:16:04Z</time>
      </trkpt>
      <trkpt lat="45.30203" lon="5.40065">
        <ele>589</ele>
        <time>2021-01-15T12:16:06Z</time>
      </trkpt>
      <trkpt lat="45.30213" lon="5.40074">
        <ele>591</ele>
        <time>2021-01-15T12:16:09Z</time>
      </trkpt>
      <trkpt lat="45.30219" lon="5.40095">
        <ele>595</ele>
        <time>2021-01-15T12:16:13Z</time>
      </trkpt>
      <trkpt lat="45.302" lon="5.40112">
        <ele>599</ele>
        <time>2021-01-15T12:16:18Z</time>
      </trkpt>
      <trkpt lat="45.30199" lon="5.40133">
        <ele>604</ele>
        <time>2021-01-15T12:16:21Z</time>
      </trkpt>
      <trkpt lat="45.30177" lon="5.40157">
        <ele>610</ele>
        <time>2021-01-15T12:16:28Z</time>
      </trkpt>
      <trkpt lat="45.30135" lon="5.40219">
        <ele>622</ele>
        <time>2021-01-15T12:16:42Z</time>
      </trkpt>
      <trkpt lat="45.30116" lon="5.40241">
        <ele>626</ele>
        <time>2021-01-15T12:16:48Z</time>
      </trkpt>
      <trkpt lat="45.3008" lon="5.40267">
        <ele>628</ele>
        <time>2021-01-15T12:16:57Z</time>
      </trkpt>
      <trkpt lat="45.30069" lon="5.40283">
        <ele>626</ele>
        <time>2021-01-15T12:17:01Z</time>
      </trkpt>
      <trkpt lat="45.30065" lon="5.4029">
        <ele>626</ele>
        <time>2021-01-15T12:17:02Z</time>
      </trkpt>
      <trkpt lat="45.30065" lon="5.403">
        <ele>627</ele>
        <time>2021-01-15T12:17:04Z</time>
      </trkpt>
      <trkpt lat="45.30067" lon="5.4031">
        <ele>629</ele>
        <time>2021-01-15T12:17:05Z</time>
      </trkpt>
      <trkpt lat="45.30077" lon="5.40324">
        <ele>634</ele>
        <time>2021-01-15T12:17:09Z</time>
      </trkpt>
      <trkpt lat="45.30092" lon="5.40329">
        <ele>639</ele>
        <time>2021-01-15T12:17:12Z</time>
      </trkpt>
      <trkpt lat="45.30138" lon="5.40341">
        <ele>648</ele>
        <time>2021-01-15T12:17:23Z</time>
      </trkpt>
      <trkpt lat="45.30146" lon="5.40345">
        <ele>650</ele>
        <time>2021-01-15T12:17:25Z</time>
      </trkpt>
      <trkpt lat="45.3015" lon="5.40352">
        <ele>652</ele>
        <time>2021-01-15T12:17:27Z</time>
      </trkpt>
      <trkpt lat="45.30151" lon="5.40368">
        <ele>654</ele>
        <time>2021-01-15T12:17:29Z</time>
      </trkpt>
      <trkpt lat="45.30155" lon="5.40381">
        <ele>657</ele>
        <time>2021-01-15T12:17:32Z</time>
      </trkpt>
      <trkpt lat="45.30154" lon="5.40399">
        <ele>659</ele>
        <time>2021-01-15T12:17:35Z</time>
      </trkpt>
      <trkpt lat="45.30157" lon="5.40423">
        <ele>663</ele>
        <time>2021-01-15T12:17:39Z</time>
      </trkpt>
      <trkpt lat="45.30164" lon="5.40445">
        <ele>665</ele>
        <time>2021-01-15T12:17:43Z</time>
      </trkpt>
      <trkpt lat="45.30196" lon="5.40511">
        <ele>678</ele>
        <time>2021-01-15T12:17:56Z</time>
      </trkpt>
      <trkpt lat="45.30202" lon="5.40515">
        <ele>681</ele>
        <time>2021-01-15T12:17:57Z</time>
      </trkpt>
      <trkpt lat="45.30231" lon="5.4051">
        <ele>692</ele>
        <time>2021-01-15T12:18:04Z</time>
      </trkpt>
      <trkpt lat="45.3025" lon="5.4051">
        <ele>699</ele>
        <time>2021-01-15T12:18:09Z</time>
      </trkpt>
      <trkpt lat="45.30278" lon="5.4052">
        <ele>702</ele>
        <time>2021-01-15T12:18:15Z</time>
      </trkpt>
      <trkpt lat="45.30294" lon="5.40528">
        <ele>705</ele>
        <time>2021-01-15T12:18:19Z</time>
      </trkpt>
      <trkpt lat="45.30309" lon="5.40543">
        <ele>710</ele>
        <time>2021-01-15T12:18:24Z</time>
      </trkpt>
      <trkpt lat="45.30323" lon="5.40567">
        <ele>717</ele>
        <time>2021-01-15T12:18:29Z</time>
      </trkpt>
      <trkpt lat="45.30337" lon="5.40593">
        <ele>723</ele>
        <time>2021-01-15T12:18:34Z</time>
      </trkpt>
      <trkpt lat="45.30351" lon="5.40607">
        <ele>725</ele>
        <time>2021-01-15T12:18:38Z</time>
      </trkpt>
      <trkpt lat="45.30454" lon="5.40643">
        <ele>738</ele>
        <time>2021-01-15T12:19:03Z</time>
      </trkpt>
      <trkpt lat="45.305" lon="5.40655">
        <ele>742</ele>
        <time>2021-01-15T12:19:14Z</time>
      </trkpt>
      <trkpt lat="45.30515" lon="5.40655">
        <ele>743</ele>
        <time>2021-01-15T12:19:17Z</time>
      </trkpt>
      <trkpt lat="45.30531" lon="5.40652">
        <ele>745</ele>
        <time>2021-01-15T12:19:21Z</time>
      </trkpt>
      <trkpt lat="45.30541" lon="5.40647">
        <ele>746</ele>
        <time>2021-01-15T12:19:24Z</time>
      </trkpt>
      <trkpt lat="45.30561" lon="5.4063">
        <ele>748</ele>
        <time>2021-01-15T12:19:29Z</time>
      </trkpt>
      <trkpt lat="45.30577" lon="5.40629">
        <ele>750</ele>
        <time>2021-01-15T12:19:33Z</time>
      </trkpt>
      <trkpt lat="45.30589" lon="5.40635">
        <ele>751</ele>
        <time>2021-01-15T12:19:36Z</time>
      </trkpt>
      <trkpt lat="45.30615" lon="5.40656">
        <ele>753</ele>
        <time>2021-01-15T12:19:43Z</time>
      </trkpt>
      <trkpt lat="45.30673" lon="5.40694">
        <ele>756</ele>
        <time>2021-01-15T12:19:58Z</time>
      </trkpt>
      <trkpt lat="45.3072" lon="5.40719">
        <ele>760</ele>
        <time>2021-01-15T12:20:09Z</time>
      </trkpt>
      <trkpt lat="45.30756" lon="5.40733">
        <ele>763</ele>
        <time>2021-01-15T12:20:18Z</time>
      </trkpt>
      <trkpt lat="45.30779" lon="5.40739">
        <ele>764</ele>
        <time>2021-01-15T12:20:23Z</time>
      </trkpt>
      <trkpt lat="45.308" lon="5.40741">
        <ele>765</ele>
        <time>2021-01-15T12:20:28Z</time>
      </trkpt>
      <trkpt lat="45.30833" lon="5.40739">
        <ele>766</ele>
        <time>2021-01-15T12:20:36Z</time>
      </trkpt>
      <trkpt lat="45.30863" lon="5.40744">
        <ele>770</ele>
        <time>2021-01-15T12:20:43Z</time>
      </trkpt>
      <trkpt lat="45.30881" lon="5.40747">
        <ele>773</ele>
        <time>2021-01-15T12:20:47Z</time>
      </trkpt>
      <trkpt lat="45.30984" lon="5.40712">
        <ele>769</ele>
        <time>2021-01-15T12:21:12Z</time>
      </trkpt>
      <trkpt lat="45.31005" lon="5.40699">
        <ele>766</ele>
        <time>2021-01-15T12:21:17Z</time>
      </trkpt>
      <trkpt lat="45.31021" lon="5.40676">
        <ele>762</ele>
        <time>2021-01-15T12:21:23Z</time>
      </trkpt>
      <trkpt lat="45.31032" lon="5.40642">
        <ele>756</ele>
        <time>2021-01-15T12:21:29Z</time>
      </trkpt>
      <trkpt lat="45.31054" lon="5.40542">
        <ele>743</ele>
        <time>2021-01-15T12:21:46Z</time>
      </trkpt>
      <trkpt lat="45.3106" lon="5.40491">
        <ele>740</ele>
        <time>2021-01-15T12:21:55Z</time>
      </trkpt>
      <trkpt lat="45.31057" lon="5.40398">
        <ele>734</ele>
        <time>2021-01-15T12:22:10Z</time>
      </trkpt>
      <trkpt lat="45.31055" lon="5.40381">
        <ele>733</ele>
        <time>2021-01-15T12:22:13Z</time>
      </trkpt>
      <trkpt lat="45.31046" lon="5.40358">
        <ele>730</ele>
        <time>2021-01-15T12:22:17Z</time>
      </trkpt>
      <trkpt lat="45.31032" lon="5.40267">
        <ele>720</ele>
        <time>2021-01-15T12:22:32Z</time>
      </trkpt>
      <trkpt lat="45.31034" lon="5.40245">
        <ele>718</ele>
        <time>2021-01-15T12:22:36Z</time>
      </trkpt>
      <trkpt lat="45.31031" lon="5.40206">
        <ele>711</ele>
        <time>2021-01-15T12:22:42Z</time>
      </trkpt>
      <trkpt lat="45.31031" lon="5.40183">
        <ele>706</ele>
        <time>2021-01-15T12:22:46Z</time>
      </trkpt>
      <trkpt lat="45.31034" lon="5.40168">
        <ele>704</ele>
        <time>2021-01-15T12:22:49Z</time>
      </trkpt>
      <trkpt lat="45.31051" lon="5.40118">
        <ele>697</ele>
        <time>2021-01-15T12:22:58Z</time>
      </trkpt>
      <trkpt lat="45.31071" lon="5.4001">
        <ele>687</ele>
        <time>2021-01-15T12:23:16Z</time>
      </trkpt>
      <trkpt lat="45.31093" lon="5.3993">
        <ele>677</ele>
        <time>2021-01-15T12:23:30Z</time>
      </trkpt>
      <trkpt lat="45.31112" lon="5.39869">
        <ele>669</ele>
        <time>2021-01-15T12:23:41Z</time>
      </trkpt>
      <trkpt lat="45.31131" lon="5.39834">
        <ele>664</ele>
        <time>2021-01-15T12:23:49Z</time>
      </trkpt>
      <trkpt lat="45.31221" lon="5.39703">
        <ele>642</ele>
        <time>2021-01-15T12:24:19Z</time>
      </trkpt>
      <trkpt lat="45.3129" lon="5.39573">
        <ele>619</ele>
        <time>2021-01-15T12:24:45Z</time>
      </trkpt>
      <trkpt lat="45.31336" lon="5.3949">
        <ele>608</ele>
        <time>2021-01-15T12:25:03Z</time>
      </trkpt>
      <trkpt lat="45.31384" lon="5.39412">
        <ele>601</ele>
        <time>2021-01-15T12:25:20Z</time>
      </trkpt>
      <trkpt lat="45.31398" lon="5.39396">
        <ele>600</ele>
        <time>2021-01-15T12:25:24Z</time>
      </trkpt>
      <trkpt lat="45.31409" lon="5.39376">
        <ele>600</ele>
        <time>2021-01-15T12:25:28Z</time>
      </trkpt>
      <trkpt lat="45.31421" lon="5.39347">
        <ele>599</ele>
        <time>2021-01-15T12:25:34Z</time>
      </trkpt>
      <trkpt lat="45.31429" lon="5.39352">
        <ele>599</ele>
        <time>2021-01-15T12:25:36Z</time>
      </trkpt>
      <trkpt lat="45.31437" lon="5.39323">
        <ele>599</ele>
        <time>2021-01-15T12:25:41Z</time>
      </trkpt>
      <trkpt lat="45.31436" lon="5.39291">
        <ele>597</ele>
        <time>2021-01-15T12:25:46Z</time>
      </trkpt>
      <trkpt lat="45.31449" lon="5.39277">
        <ele>597</ele>
        <time>2021-01-15T12:25:50Z</time>
      </trkpt>
      <trkpt lat="45.31455" lon="5.39264">
        <ele>596</ele>
        <time>2021-01-15T12:25:52Z</time>
      </trkpt>
      <trkpt lat="45.31498" lon="5.39203">
        <ele>601</ele>
        <time>2021-01-15T12:26:07Z</time>
      </trkpt>
      <trkpt lat="45.315" lon="5.39197">
        <ele>602</ele>
        <time>2021-01-15T12:26:08Z</time>
      </trkpt>
      <trkpt lat="45.31498" lon="5.39164">
        <ele>603</ele>
        <time>2021-01-15T12:26:13Z</time>
      </trkpt>
      <trkpt lat="45.315" lon="5.39148">
        <ele>604</ele>
        <time>2021-01-15T12:26:16Z</time>
      </trkpt>
      <trkpt lat="45.3148" lon="5.39116">
        <ele>603</ele>
        <time>2021-01-15T12:26:23Z</time>
      </trkpt>
      <trkpt lat="45.31457" lon="5.39092">
        <ele>599</ele>
        <time>2021-01-15T12:26:30Z</time>
      </trkpt>
      <trkpt lat="45.31436" lon="5.39065">
        <ele>595</ele>
        <time>2021-01-15T12:26:36Z</time>
      </trkpt>
      <trkpt lat="45.31414" lon="5.39039">
        <ele>592</ele>
        <time>2021-01-15T12:26:43Z</time>
      </trkpt>
      <trkpt lat="45.31388" lon="5.39007">
        <ele>591</ele>
        <time>2021-01-15T12:26:51Z</time>
      </trkpt>
      <trkpt lat="45.31379" lon="5.38999">
        <ele>590</ele>
        <time>2021-01-15T12:26:53Z</time>
      </trkpt>
      <trkpt lat="45.31369" lon="5.38994">
        <ele>589</ele>
        <time>2021-01-15T12:26:56Z</time>
      </trkpt>
      <trkpt lat="45.31368" lon="5.38985">
        <ele>589</ele>
        <time>2021-01-15T12:26:57Z</time>
      </trkpt>
      <trkpt lat="45.3131" lon="5.38804">
        <ele>587</ele>
        <time>2021-01-15T12:27:30Z</time>
      </trkpt>
      <trkpt lat="45.31252" lon="5.3866">
        <ele>581</ele>
        <time>2021-01-15T12:27:57Z</time>
      </trkpt>
      <trkpt lat="45.31234" lon="5.38609">
        <ele>583</ele>
        <time>2021-01-15T12:28:07Z</time>
      </trkpt>
      <trkpt lat="45.31229" lon="5.38547">
        <ele>583</ele>
        <time>2021-01-15T12:28:17Z</time>
      </trkpt>
      <trkpt lat="45.31237" lon="5.38506">
        <ele>583</ele>
        <time>2021-01-15T12:28:24Z</time>
      </trkpt>
      <trkpt lat="45.31251" lon="5.38476">
        <ele>582</ele>
        <time>2021-01-15T12:28:30Z</time>
      </trkpt>
      <trkpt lat="45.31264" lon="5.38461">
        <ele>582</ele>
        <time>2021-01-15T12:28:34Z</time>
      </trkpt>
      <trkpt lat="45.31296" lon="5.38448">
        <ele>584</ele>
        <time>2021-01-15T12:28:41Z</time>
      </trkpt>
      <trkpt lat="45.31321" lon="5.38432">
        <ele>584</ele>
        <time>2021-01-15T12:28:48Z</time>
      </trkpt>
      <trkpt lat="45.31382" lon="5.38403">
        <ele>577</ele>
        <time>2021-01-15T12:29:03Z</time>
      </trkpt>
      <trkpt lat="45.31417" lon="5.38373">
        <ele>573</ele>
        <time>2021-01-15T12:29:12Z</time>
      </trkpt>
      <trkpt lat="45.31482" lon="5.38286">
        <ele>564</ele>
        <time>2021-01-15T12:29:33Z</time>
      </trkpt>
      <trkpt lat="45.31499" lon="5.38253">
        <ele>561</ele>
        <time>2021-01-15T12:29:40Z</time>
      </trkpt>
      <trkpt lat="45.31502" lon="5.38218">
        <ele>560</ele>
        <time>2021-01-15T12:29:46Z</time>
      </trkpt>
      <trkpt lat="45.31495" lon="5.38159">
        <ele>557</ele>
        <time>2021-01-15T12:29:56Z</time>
      </trkpt>
      <trkpt lat="45.31492" lon="5.38135">
        <ele>556</ele>
        <time>2021-01-15T12:30:00Z</time>
      </trkpt>
      <trkpt lat="45.31493" lon="5.38112">
        <ele>556</ele>
        <time>2021-01-15T12:30:03Z</time>
      </trkpt>
      <trkpt lat="45.31504" lon="5.38052">
        <ele>555</ele>
        <time>2021-01-15T12:30:14Z</time>
      </trkpt>
      <trkpt lat="45.31504" lon="5.37971">
        <ele>552</ele>
        <time>2021-01-15T12:30:27Z</time>
      </trkpt>
      <trkpt lat="45.31511" lon="5.37955">
        <ele>551</ele>
        <time>2021-01-15T12:30:30Z</time>
      </trkpt>
      <trkpt lat="45.3163" lon="5.37767">
        <ele>542</ele>
        <time>2021-01-15T12:31:11Z</time>
      </trkpt>
      <trkpt lat="45.31694" lon="5.37673">
        <ele>535</ele>
        <time>2021-01-15T12:31:33Z</time>
      </trkpt>
      <trkpt lat="45.3171" lon="5.37652">
        <ele>533</ele>
        <time>2021-01-15T12:31:38Z</time>
      </trkpt>
      <trkpt lat="45.31742" lon="5.37633">
        <ele>531</ele>
        <time>2021-01-15T12:31:46Z</time>
      </trkpt>
      <trkpt lat="45.31765" lon="5.37609">
        <ele>530</ele>
        <time>2021-01-15T12:31:53Z</time>
      </trkpt>
      <trkpt lat="45.31774" lon="5.37573">
        <ele>529</ele>
        <time>2021-01-15T12:31:59Z</time>
      </trkpt>
      <trkpt lat="45.31782" lon="5.37558">
        <ele>527</ele>
        <time>2021-01-15T12:32:02Z</time>
      </trkpt>
      <trkpt lat="45.31805" lon="5.37538">
        <ele>525</ele>
        <time>2021-01-15T12:32:08Z</time>
      </trkpt>
      <trkpt lat="45.31819" lon="5.37523">
        <ele>525</ele>
        <time>2021-01-15T12:32:13Z</time>
      </trkpt>
      <trkpt lat="45.31832" lon="5.37505">
        <ele>525</ele>
        <time>2021-01-15T12:32:17Z</time>
      </trkpt>
      <trkpt lat="45.31878" lon="5.37401">
        <ele>522</ele>
        <time>2021-01-15T12:32:37Z</time>
      </trkpt>
      <trkpt lat="45.31892" lon="5.37323">
        <ele>522</ele>
        <time>2021-01-15T12:32:50Z</time>
      </trkpt>
      <trkpt lat="45.31907" lon="5.37278">
        <ele>524</ele>
        <time>2021-01-15T12:32:58Z</time>
      </trkpt>
      <trkpt lat="45.31922" lon="5.37243">
        <ele>523</ele>
        <time>2021-01-15T12:33:05Z</time>
      </trkpt>
      <trkpt lat="45.31944" lon="5.37219">
        <ele>519</ele>
        <time>2021-01-15T12:33:12Z</time>
      </trkpt>
      <trkpt lat="45.32021" lon="5.3712">
        <ele>506</ele>
        <time>2021-01-15T12:33:36Z</time>
      </trkpt>
      <trkpt lat="45.32093" lon="5.36999">
        <ele>497</ele>
        <time>2021-01-15T12:34:02Z</time>
      </trkpt>
      <trkpt lat="45.32108" lon="5.36967">
        <ele>492</ele>
        <time>2021-01-15T12:34:08Z</time>
      </trkpt>
      <trkpt lat="45.32149" lon="5.36928">
        <ele>492</ele>
        <time>2021-01-15T12:34:20Z</time>
      </trkpt>
      <trkpt lat="45.32183" lon="5.36881">
        <ele>487</ele>
        <time>2021-01-15T12:34:31Z</time>
      </trkpt>
      <trkpt lat="45.32206" lon="5.36838">
        <ele>480</ele>
        <time>2021-01-15T12:34:40Z</time>
      </trkpt>
      <trkpt lat="45.3226" lon="5.36758">
        <ele>470</ele>
        <time>2021-01-15T12:34:58Z</time>
      </trkpt>
      <trkpt lat="45.32288" lon="5.36758">
        <ele>467</ele>
        <time>2021-01-15T12:35:04Z</time>
      </trkpt>
      <trkpt lat="45.3229" lon="5.36737">
        <ele>465</ele>
        <time>2021-01-15T12:35:08Z</time>
      </trkpt>
      <trkpt lat="45.32282" lon="5.36707">
        <ele>463</ele>
        <time>2021-01-15T12:35:13Z</time>
      </trkpt>
      <trkpt lat="45.32266" lon="5.36667">
        <ele>459</ele>
        <time>2021-01-15T12:35:21Z</time>
      </trkpt>
      <trkpt lat="45.32301" lon="5.36647">
        <ele>459</ele>
        <time>2021-01-15T12:35:30Z</time>
      </trkpt>
      <trkpt lat="45.32363" lon="5.36584">
        <ele>458</ele>
        <time>2021-01-15T12:35:47Z</time>
      </trkpt>
      <trkpt lat="45.32396" lon="5.36554">
        <ele>457</ele>
        <time>2021-01-15T12:35:56Z</time>
      </trkpt>
      <trkpt lat="45.32416" lon="5.36547">
        <ele>457</ele>
        <time>2021-01-15T12:36:01Z</time>
      </trkpt>
      <trkpt lat="45.32433" lon="5.36533">
        <ele>461</ele>
        <time>2021-01-15T12:36:06Z</time>
      </trkpt>
      <trkpt lat="45.32467" lon="5.36439">
        <ele>461</ele>
        <time>2021-01-15T12:36:23Z</time>
      </trkpt>
      <trkpt lat="45.32542" lon="5.36292">
        <ele>466</ele>
        <time>2021-01-15T12:36:53Z</time>
      </trkpt>
      <trkpt lat="45.3255" lon="5.36271">
        <ele>467</ele>
        <time>2021-01-15T12:36:57Z</time>
      </trkpt>
      <trkpt lat="45.32578" lon="5.36183">
        <ele>467</ele>
        <time>2021-01-15T12:37:13Z</time>
      </trkpt>
      <trkpt lat="45.32592" lon="5.36131">
        <ele>469</ele>
        <time>2021-01-15T12:37:22Z</time>
      </trkpt>
      <trkpt lat="45.32604" lon="5.36075">
        <ele>471</ele>
        <time>2021-01-15T12:37:32Z</time>
      </trkpt>
      <trkpt lat="45.32618" lon="5.35914">
        <ele>468</ele>
        <time>2021-01-15T12:37:58Z</time>
      </trkpt>
      <trkpt lat="45.32633" lon="5.35811">
        <ele>468</ele>
        <time>2021-01-15T12:38:15Z</time>
      </trkpt>
      <trkpt lat="45.32684" lon="5.35782">
        <ele>474</ele>
        <time>2021-01-15T12:38:28Z</time>
      </trkpt>
      <trkpt lat="45.32756" lon="5.3572">
        <ele>476</ele>
        <time>2021-01-15T12:38:48Z</time>
      </trkpt>
      <trkpt lat="45.32774" lon="5.35703">
        <ele>476</ele>
        <time>2021-01-15T12:38:53Z</time>
      </trkpt>
      <trkpt lat="45.32777" lon="5.35677">
        <ele>475</ele>
        <time>2021-01-15T12:38:57Z</time>
      </trkpt>
      <trkpt lat="45.32819" lon="5.35653">
        <ele>474</ele>
        <time>2021-01-15T12:39:08Z</time>
      </trkpt>
      <trkpt lat="45.3284" lon="5.35637">
        <ele>473</ele>
        <time>2021-01-15T12:39:13Z</time>
      </trkpt>
      <trkpt lat="45.32861" lon="5.35614">
        <ele>472</ele>
        <time>2021-01-15T12:39:20Z</time>
      </trkpt>
      <trkpt lat="45.32904" lon="5.3552">
        <ele>469</ele>
        <time>2021-01-15T12:39:38Z</time>
      </trkpt>
      <trkpt lat="45.32947" lon="5.3546">
        <ele>467</ele>
        <time>2021-01-15T12:39:52Z</time>
      </trkpt>
      <trkpt lat="45.32962" lon="5.35451">
        <ele>467</ele>
        <time>2021-01-15T12:39:56Z</time>
      </trkpt>
      <trkpt lat="45.3307" lon="5.35373">
        <ele>458</ele>
        <time>2021-01-15T12:40:24Z</time>
      </trkpt>
      <trkpt lat="45.3314" lon="5.35296">
        <ele>452</ele>
        <time>2021-01-15T12:40:45Z</time>
      </trkpt>
      <trkpt lat="45.33174" lon="5.35265">
        <ele>449</ele>
        <time>2021-01-15T12:40:54Z</time>
      </trkpt>
      <trkpt lat="45.33192" lon="5.35146">
        <ele>445</ele>
        <time>2021-01-15T12:41:14Z</time>
      </trkpt>
      <trkpt lat="45.33206" lon="5.351">
        <ele>445</ele>
        <time>2021-01-15T12:41:23Z</time>
      </trkpt>
      <trkpt lat="45.33234" lon="5.35046">
        <ele>442</ele>
        <time>2021-01-15T12:41:34Z</time>
      </trkpt>
      <trkpt lat="45.33244" lon="5.35022">
        <ele>441</ele>
        <time>2021-01-15T12:41:38Z</time>
      </trkpt>
      <trkpt lat="45.33267" lon="5.34999">
        <ele>439</ele>
        <time>2021-01-15T12:41:45Z</time>
      </trkpt>
      <trkpt lat="45.33295" lon="5.34949">
        <ele>438</ele>
        <time>2021-01-15T12:41:55Z</time>
      </trkpt>
      <trkpt lat="45.33345" lon="5.34879">
        <ele>437</ele>
        <time>2021-01-15T12:42:12Z</time>
      </trkpt>
      <trkpt lat="45.33377" lon="5.34817">
        <ele>436</ele>
        <time>2021-01-15T12:42:24Z</time>
      </trkpt>
      <trkpt lat="45.33422" lon="5.34776">
        <ele>436</ele>
        <time>2021-01-15T12:42:37Z</time>
      </trkpt>
      <trkpt lat="45.33475" lon="5.34731">
        <ele>435</ele>
        <time>2021-01-15T12:42:51Z</time>
      </trkpt>
      <trkpt lat="45.33518" lon="5.34688">
        <ele>430</ele>
        <time>2021-01-15T12:43:03Z</time>
      </trkpt>
      <trkpt lat="45.33604" lon="5.3463">
        <ele>420</ele>
        <time>2021-01-15T12:43:26Z</time>
      </trkpt>
      <trkpt lat="45.33644" lon="5.34611">
        <ele>418</ele>
        <time>2021-01-15T12:43:35Z</time>
      </trkpt>
      <trkpt lat="45.33658" lon="5.34585">
        <ele>416</ele>
        <time>2021-01-15T12:43:41Z</time>
      </trkpt>
      <trkpt lat="45.33675" lon="5.34564">
        <ele>415</ele>
        <time>2021-01-15T12:43:46Z</time>
      </trkpt>
      <trkpt lat="45.33709" lon="5.3453">
        <ele>413</ele>
        <time>2021-01-15T12:43:56Z</time>
      </trkpt>
      <trkpt lat="45.33736" lon="5.34465">
        <ele>407</ele>
        <time>2021-01-15T12:44:08Z</time>
      </trkpt>
      <trkpt lat="45.33737" lon="5.34443">
        <ele>405</ele>
        <time>2021-01-15T12:44:12Z</time>
      </trkpt>
      <trkpt lat="45.33722" lon="5.34442">
        <ele>405</ele>
        <time>2021-01-15T12:44:15Z</time>
      </trkpt>
      <trkpt lat="45.33723" lon="5.3439">
        <ele>402</ele>
        <time>2021-01-15T12:44:24Z</time>
      </trkpt>
      <trkpt lat="45.33721" lon="5.34314">
        <ele>400</ele>
        <time>2021-01-15T12:44:36Z</time>
      </trkpt>
      <trkpt lat="45.33727" lon="5.34302">
        <ele>399</ele>
        <time>2021-01-15T12:44:39Z</time>
      </trkpt>
      <trkpt lat="45.33766" lon="5.34281">
        <ele>399</ele>
        <time>2021-01-15T12:44:48Z</time>
      </trkpt>
      <trkpt lat="45.3377" lon="5.34298">
        <ele>399</ele>
        <time>2021-01-15T12:44:51Z</time>
      </trkpt>
      <trkpt lat="45.33775" lon="5.34297">
        <ele>399</ele>
        <time>2021-01-15T12:44:53Z</time>
      </trkpt>
      <trkpt lat="45.33779" lon="5.34303">
        <ele>399</ele>
        <time>2021-01-15T12:44:54Z</time>
      </trkpt>
    </trkseg>
  </trk>
</gpx>